<?xml version="1.0" encoding="UTF-8" standalone="no" ?>
<gpx xmlns="http://www.topografix.com/GPX/1/1" xmlns:xsi="http://www.w3.org/2001/XMLSchema-instance" xsi:schemaLocation="http://www.topografix.com/GPX/1/1 http://www.topografix.com/GPX/1/1/gpx.xsd" version="1.1" creator="VisuGPX - https://www.visugpx.com">
  <metadata>
    <name>64 - VTT - Circuit en huit entre Monein, Abos, Pardies, Norguères, Lahourcade et Mourenx Bourg</name>
    <desc><![CDATA[Reprise sur du plat]]></desc>
  </metadata>
  <wpt lat="43.31577" lon="-0.5864">
    <ele>200.9</ele>
    <name><![CDATA[001]]></name>
  </wpt>
  <trk>
    <name><![CDATA[ACTIVE LOG 004]]></name>
    <trkseg>
      <trkpt lat="43.31576" lon="-0.58646">
        <ele>204.41748046875</ele>
        <time>2016-07-06T09:10:55Z</time>
      </trkpt>
      <trkpt lat="43.31577" lon="-0.58646">
        <ele>204.89807128906</ele>
        <time>2016-07-06T09:10:46Z</time>
      </trkpt>
      <trkpt lat="43.31576" lon="-0.58648">
        <ele>204.89807128906</ele>
        <time>2016-07-06T09:10:30Z</time>
      </trkpt>
      <trkpt lat="43.31575" lon="-0.58649">
        <ele>204.89807128906</ele>
        <time>2016-07-06T09:10:20Z</time>
      </trkpt>
      <trkpt lat="43.31583" lon="-0.58648">
        <ele>204.41748046875</ele>
        <time>2016-07-06T09:10:11Z</time>
      </trkpt>
      <trkpt lat="43.31585" lon="-0.58639">
        <ele>203.93688964844</ele>
        <time>2016-07-06T09:10:07Z</time>
      </trkpt>
      <trkpt lat="43.31586" lon="-0.58636">
        <ele>203.93688964844</ele>
        <time>2016-07-06T09:10:06Z</time>
      </trkpt>
      <trkpt lat="43.31589" lon="-0.58572">
        <ele>200.572265625</ele>
        <time>2016-07-06T09:09:52Z</time>
      </trkpt>
      <trkpt lat="43.3158" lon="-0.58542">
        <ele>200.09167480469</ele>
        <time>2016-07-06T09:09:44Z</time>
      </trkpt>
      <trkpt lat="43.31563" lon="-0.58539">
        <ele>202.97546386719</ele>
        <time>2016-07-06T09:09:40Z</time>
      </trkpt>
      <trkpt lat="43.31551" lon="-0.58539">
        <ele>204.41748046875</ele>
        <time>2016-07-06T09:09:38Z</time>
      </trkpt>
      <trkpt lat="43.31544" lon="-0.58538">
        <ele>204.89807128906</ele>
        <time>2016-07-06T09:09:37Z</time>
      </trkpt>
      <trkpt lat="43.31495" lon="-0.58545">
        <ele>209.22412109375</ele>
        <time>2016-07-06T09:09:30Z</time>
      </trkpt>
      <trkpt lat="43.31463" lon="-0.58566">
        <ele>211.14672851562</ele>
        <time>2016-07-06T09:09:25Z</time>
      </trkpt>
      <trkpt lat="43.31406" lon="-0.58602">
        <ele>214.99194335938</ele>
        <time>2016-07-06T09:09:14Z</time>
      </trkpt>
      <trkpt lat="43.31401" lon="-0.58602">
        <ele>214.51123046875</ele>
        <time>2016-07-06T09:09:13Z</time>
      </trkpt>
      <trkpt lat="43.31329" lon="-0.58598">
        <ele>214.99194335938</ele>
        <time>2016-07-06T09:09:00Z</time>
      </trkpt>
      <trkpt lat="43.3127" lon="-0.58573">
        <ele>217.8759765625</ele>
        <time>2016-07-06T09:08:52Z</time>
      </trkpt>
      <trkpt lat="43.31204" lon="-0.58554">
        <ele>221.24060058594</ele>
        <time>2016-07-06T09:08:42Z</time>
      </trkpt>
      <trkpt lat="43.31152" lon="-0.58548">
        <ele>221.72119140625</ele>
        <time>2016-07-06T09:08:32Z</time>
      </trkpt>
      <trkpt lat="43.31141" lon="-0.58554">
        <ele>222.68249511719</ele>
        <time>2016-07-06T09:08:30Z</time>
      </trkpt>
      <trkpt lat="43.31077" lon="-0.5857">
        <ele>227.00854492188</ele>
        <time>2016-07-06T09:08:21Z</time>
      </trkpt>
      <trkpt lat="43.3105" lon="-0.58572">
        <ele>228.45043945312</ele>
        <time>2016-07-06T09:08:17Z</time>
      </trkpt>
      <trkpt lat="43.31034" lon="-0.58567">
        <ele>229.41174316406</ele>
        <time>2016-07-06T09:08:14Z</time>
      </trkpt>
      <trkpt lat="43.30959" lon="-0.58521">
        <ele>229.89233398438</ele>
        <time>2016-07-06T09:07:57Z</time>
      </trkpt>
      <trkpt lat="43.3095" lon="-0.58513">
        <ele>229.89233398438</ele>
        <time>2016-07-06T09:07:55Z</time>
      </trkpt>
      <trkpt lat="43.30905" lon="-0.58516">
        <ele>230.373046875</ele>
        <time>2016-07-06T09:07:46Z</time>
      </trkpt>
      <trkpt lat="43.30878" lon="-0.58547">
        <ele>230.85375976562</ele>
        <time>2016-07-06T09:07:38Z</time>
      </trkpt>
      <trkpt lat="43.30864" lon="-0.58558">
        <ele>230.85375976562</ele>
        <time>2016-07-06T09:07:34Z</time>
      </trkpt>
      <trkpt lat="43.30789" lon="-0.58564">
        <ele>230.373046875</ele>
        <time>2016-07-06T09:07:16Z</time>
      </trkpt>
      <trkpt lat="43.30773" lon="-0.58575">
        <ele>229.89233398438</ele>
        <time>2016-07-06T09:07:11Z</time>
      </trkpt>
      <trkpt lat="43.30775" lon="-0.58609">
        <ele>229.41174316406</ele>
        <time>2016-07-06T09:07:05Z</time>
      </trkpt>
      <trkpt lat="43.30781" lon="-0.58669">
        <ele>229.89233398438</ele>
        <time>2016-07-06T09:06:52Z</time>
      </trkpt>
      <trkpt lat="43.30785" lon="-0.58708">
        <ele>226.52783203125</ele>
        <time>2016-07-06T09:06:38Z</time>
      </trkpt>
      <trkpt lat="43.30773" lon="-0.58731">
        <ele>223.16320800781</ele>
        <time>2016-07-06T09:06:27Z</time>
      </trkpt>
      <trkpt lat="43.30735" lon="-0.58742">
        <ele>220.27917480469</ele>
        <time>2016-07-06T09:06:14Z</time>
      </trkpt>
      <trkpt lat="43.30726" lon="-0.58744">
        <ele>219.79858398438</ele>
        <time>2016-07-06T09:06:12Z</time>
      </trkpt>
      <trkpt lat="43.30718" lon="-0.58781">
        <ele>219.31799316406</ele>
        <time>2016-07-06T09:06:05Z</time>
      </trkpt>
      <trkpt lat="43.3077" lon="-0.58863">
        <ele>219.79858398438</ele>
        <time>2016-07-06T09:05:50Z</time>
      </trkpt>
      <trkpt lat="43.30793" lon="-0.5894">
        <ele>218.83728027344</ele>
        <time>2016-07-06T09:05:38Z</time>
      </trkpt>
      <trkpt lat="43.30784" lon="-0.59069">
        <ele>222.20178222656</ele>
        <time>2016-07-06T09:05:24Z</time>
      </trkpt>
      <trkpt lat="43.30766" lon="-0.59166">
        <ele>223.64379882812</ele>
        <time>2016-07-06T09:05:09Z</time>
      </trkpt>
      <trkpt lat="43.30746" lon="-0.59232">
        <ele>223.16320800781</ele>
        <time>2016-07-06T09:04:58Z</time>
      </trkpt>
      <trkpt lat="43.30723" lon="-0.59272">
        <ele>224.60522460938</ele>
        <time>2016-07-06T09:04:51Z</time>
      </trkpt>
      <trkpt lat="43.30699" lon="-0.59308">
        <ele>225.0859375</ele>
        <time>2016-07-06T09:04:39Z</time>
      </trkpt>
      <trkpt lat="43.3068" lon="-0.59343">
        <ele>222.20178222656</ele>
        <time>2016-07-06T09:04:22Z</time>
      </trkpt>
      <trkpt lat="43.30653" lon="-0.59387">
        <ele>218.35656738281</ele>
        <time>2016-07-06T09:04:01Z</time>
      </trkpt>
      <trkpt lat="43.3063" lon="-0.59425">
        <ele>216.43395996094</ele>
        <time>2016-07-06T09:03:43Z</time>
      </trkpt>
      <trkpt lat="43.30617" lon="-0.59469">
        <ele>214.99194335938</ele>
        <time>2016-07-06T09:03:25Z</time>
      </trkpt>
      <trkpt lat="43.30602" lon="-0.59507">
        <ele>212.58862304688</ele>
        <time>2016-07-06T09:03:07Z</time>
      </trkpt>
      <trkpt lat="43.3058" lon="-0.59541">
        <ele>210.18542480469</ele>
        <time>2016-07-06T09:02:47Z</time>
      </trkpt>
      <trkpt lat="43.3056" lon="-0.5957">
        <ele>207.78210449219</ele>
        <time>2016-07-06T09:02:27Z</time>
      </trkpt>
      <trkpt lat="43.30546" lon="-0.5959">
        <ele>204.41748046875</ele>
        <time>2016-07-06T09:02:13Z</time>
      </trkpt>
      <trkpt lat="43.30531" lon="-0.59609">
        <ele>201.53356933594</ele>
        <time>2016-07-06T09:02:00Z</time>
      </trkpt>
      <trkpt lat="43.30518" lon="-0.59628">
        <ele>197.68823242188</ele>
        <time>2016-07-06T09:01:48Z</time>
      </trkpt>
      <trkpt lat="43.3051" lon="-0.59668">
        <ele>194.80432128906</ele>
        <time>2016-07-06T09:01:29Z</time>
      </trkpt>
      <trkpt lat="43.3052" lon="-0.59712">
        <ele>192.40112304688</ele>
        <time>2016-07-06T09:01:09Z</time>
      </trkpt>
      <trkpt lat="43.30525" lon="-0.59747">
        <ele>189.99768066406</ele>
        <time>2016-07-06T09:00:52Z</time>
      </trkpt>
      <trkpt lat="43.30522" lon="-0.59753">
        <ele>189.03637695312</ele>
        <time>2016-07-06T09:00:48Z</time>
      </trkpt>
      <trkpt lat="43.30518" lon="-0.59756">
        <ele>188.07507324219</ele>
        <time>2016-07-06T09:00:45Z</time>
      </trkpt>
      <trkpt lat="43.30505" lon="-0.59753">
        <ele>185.67175292969</ele>
        <time>2016-07-06T09:00:37Z</time>
      </trkpt>
      <trkpt lat="43.30482" lon="-0.59724">
        <ele>183.26843261719</ele>
        <time>2016-07-06T09:00:19Z</time>
      </trkpt>
      <trkpt lat="43.30466" lon="-0.59701">
        <ele>179.90380859375</ele>
        <time>2016-07-06T09:00:06Z</time>
      </trkpt>
      <trkpt lat="43.30465" lon="-0.59699">
        <ele>179.90380859375</ele>
        <time>2016-07-06T09:00:05Z</time>
      </trkpt>
      <trkpt lat="43.30448" lon="-0.59667">
        <ele>176.53930664062</ele>
        <time>2016-07-06T08:59:49Z</time>
      </trkpt>
      <trkpt lat="43.30433" lon="-0.59644">
        <ele>174.13586425781</ele>
        <time>2016-07-06T08:59:35Z</time>
      </trkpt>
      <trkpt lat="43.30425" lon="-0.59648">
        <ele>172.69396972656</ele>
        <time>2016-07-06T08:59:30Z</time>
      </trkpt>
      <trkpt lat="43.30408" lon="-0.59676">
        <ele>169.81005859375</ele>
        <time>2016-07-06T08:59:15Z</time>
      </trkpt>
      <trkpt lat="43.30411" lon="-0.59721">
        <ele>167.88732910156</ele>
        <time>2016-07-06T08:58:55Z</time>
      </trkpt>
      <trkpt lat="43.30418" lon="-0.5974">
        <ele>164.52270507812</ele>
        <time>2016-07-06T08:58:46Z</time>
      </trkpt>
      <trkpt lat="43.30416" lon="-0.59766">
        <ele>161.63891601562</ele>
        <time>2016-07-06T08:58:33Z</time>
      </trkpt>
      <trkpt lat="43.30402" lon="-0.59779">
        <ele>158.27416992188</ele>
        <time>2016-07-06T08:58:22Z</time>
      </trkpt>
      <trkpt lat="43.30401" lon="-0.5978">
        <ele>158.27416992188</ele>
        <time>2016-07-06T08:58:21Z</time>
      </trkpt>
      <trkpt lat="43.30384" lon="-0.59789">
        <ele>154.90954589844</ele>
        <time>2016-07-06T08:58:11Z</time>
      </trkpt>
      <trkpt lat="43.304" lon="-0.59851">
        <ele>153.46765136719</ele>
        <time>2016-07-06T08:57:56Z</time>
      </trkpt>
      <trkpt lat="43.30448" lon="-0.59924">
        <ele>151.544921875</ele>
        <time>2016-07-06T08:57:38Z</time>
      </trkpt>
      <trkpt lat="43.30493" lon="-0.59989">
        <ele>150.10302734375</ele>
        <time>2016-07-06T08:57:19Z</time>
      </trkpt>
      <trkpt lat="43.30526" lon="-0.60049">
        <ele>149.62231445312</ele>
        <time>2016-07-06T08:57:03Z</time>
      </trkpt>
      <trkpt lat="43.30579" lon="-0.60112">
        <ele>147.21899414062</ele>
        <time>2016-07-06T08:56:45Z</time>
      </trkpt>
      <trkpt lat="43.3059" lon="-0.60122">
        <ele>147.21899414062</ele>
        <time>2016-07-06T08:56:42Z</time>
      </trkpt>
      <trkpt lat="43.30613" lon="-0.60137">
        <ele>146.2578125</ele>
        <time>2016-07-06T08:56:36Z</time>
      </trkpt>
      <trkpt lat="43.30661" lon="-0.60172">
        <ele>145.77709960938</ele>
        <time>2016-07-06T08:56:22Z</time>
      </trkpt>
      <trkpt lat="43.30698" lon="-0.60217">
        <ele>144.33520507812</ele>
        <time>2016-07-06T08:56:08Z</time>
      </trkpt>
      <trkpt lat="43.30739" lon="-0.60291">
        <ele>141.93176269531</ele>
        <time>2016-07-06T08:55:50Z</time>
      </trkpt>
      <trkpt lat="43.30745" lon="-0.60306">
        <ele>141.93176269531</ele>
        <time>2016-07-06T08:55:47Z</time>
      </trkpt>
      <trkpt lat="43.30762" lon="-0.60372">
        <ele>141.93176269531</ele>
        <time>2016-07-06T08:55:34Z</time>
      </trkpt>
      <trkpt lat="43.30782" lon="-0.60472">
        <ele>140.97045898438</ele>
        <time>2016-07-06T08:55:16Z</time>
      </trkpt>
      <trkpt lat="43.30818" lon="-0.60547">
        <ele>140.97045898438</ele>
        <time>2016-07-06T08:55:00Z</time>
      </trkpt>
      <trkpt lat="43.3084" lon="-0.60663">
        <ele>138.56726074219</ele>
        <time>2016-07-06T08:54:36Z</time>
      </trkpt>
      <trkpt lat="43.30858" lon="-0.60769">
        <ele>137.12524414062</ele>
        <time>2016-07-06T08:54:18Z</time>
      </trkpt>
      <trkpt lat="43.30887" lon="-0.6081">
        <ele>136.64465332031</ele>
        <time>2016-07-06T08:54:09Z</time>
      </trkpt>
      <trkpt lat="43.30953" lon="-0.60833">
        <ele>136.16394042969</ele>
        <time>2016-07-06T08:53:55Z</time>
      </trkpt>
      <trkpt lat="43.30978" lon="-0.60861">
        <ele>136.16394042969</ele>
        <time>2016-07-06T08:53:48Z</time>
      </trkpt>
      <trkpt lat="43.30989" lon="-0.60928">
        <ele>137.12524414062</ele>
        <time>2016-07-06T08:53:37Z</time>
      </trkpt>
      <trkpt lat="43.31005" lon="-0.60948">
        <ele>135.68310546875</ele>
        <time>2016-07-06T08:53:31Z</time>
      </trkpt>
      <trkpt lat="43.31041" lon="-0.60931">
        <ele>135.68310546875</ele>
        <time>2016-07-06T08:53:23Z</time>
      </trkpt>
      <trkpt lat="43.31089" lon="-0.6091">
        <ele>135.20251464844</ele>
        <time>2016-07-06T08:53:13Z</time>
      </trkpt>
      <trkpt lat="43.31185" lon="-0.60874">
        <ele>134.2412109375</ele>
        <time>2016-07-06T08:52:52Z</time>
      </trkpt>
      <trkpt lat="43.31274" lon="-0.60833">
        <ele>134.72192382812</ele>
        <time>2016-07-06T08:52:31Z</time>
      </trkpt>
      <trkpt lat="43.31341" lon="-0.60792">
        <ele>135.20251464844</ele>
        <time>2016-07-06T08:52:15Z</time>
      </trkpt>
      <trkpt lat="43.31447" lon="-0.60776">
        <ele>134.2412109375</ele>
        <time>2016-07-06T08:51:55Z</time>
      </trkpt>
      <trkpt lat="43.31485" lon="-0.60773">
        <ele>134.72192382812</ele>
        <time>2016-07-06T08:51:48Z</time>
      </trkpt>
      <trkpt lat="43.3158" lon="-0.60773">
        <ele>134.2412109375</ele>
        <time>2016-07-06T08:51:30Z</time>
      </trkpt>
      <trkpt lat="43.31681" lon="-0.60804">
        <ele>134.72192382812</ele>
        <time>2016-07-06T08:51:09Z</time>
      </trkpt>
      <trkpt lat="43.31759" lon="-0.60802">
        <ele>133.27990722656</ele>
        <time>2016-07-06T08:50:53Z</time>
      </trkpt>
      <trkpt lat="43.31852" lon="-0.60815">
        <ele>134.2412109375</ele>
        <time>2016-07-06T08:50:34Z</time>
      </trkpt>
      <trkpt lat="43.31955" lon="-0.60811">
        <ele>133.76049804688</ele>
        <time>2016-07-06T08:50:13Z</time>
      </trkpt>
      <trkpt lat="43.31973" lon="-0.60809">
        <ele>134.2412109375</ele>
        <time>2016-07-06T08:50:09Z</time>
      </trkpt>
      <trkpt lat="43.32011" lon="-0.60807">
        <ele>133.27990722656</ele>
        <time>2016-07-06T08:50:00Z</time>
      </trkpt>
      <trkpt lat="43.32029" lon="-0.60796">
        <ele>132.79931640625</ele>
        <time>2016-07-06T08:49:55Z</time>
      </trkpt>
      <trkpt lat="43.32083" lon="-0.60724">
        <ele>131.35729980469</ele>
        <time>2016-07-06T08:49:39Z</time>
      </trkpt>
      <trkpt lat="43.32106" lon="-0.60696">
        <ele>130.87670898438</ele>
        <time>2016-07-06T08:49:32Z</time>
      </trkpt>
      <trkpt lat="43.3213" lon="-0.60654">
        <ele>130.87670898438</ele>
        <time>2016-07-06T08:49:21Z</time>
      </trkpt>
      <trkpt lat="43.32159" lon="-0.60649">
        <ele>130.87670898438</ele>
        <time>2016-07-06T08:49:10Z</time>
      </trkpt>
      <trkpt lat="43.32166" lon="-0.60649">
        <ele>130.39599609375</ele>
        <time>2016-07-06T08:48:57Z</time>
      </trkpt>
      <trkpt lat="43.32233" lon="-0.60719">
        <ele>131.35729980469</ele>
        <time>2016-07-06T08:48:36Z</time>
      </trkpt>
      <trkpt lat="43.32256" lon="-0.60725">
        <ele>131.35729980469</ele>
        <time>2016-07-06T08:48:30Z</time>
      </trkpt>
      <trkpt lat="43.32298" lon="-0.60717">
        <ele>130.39599609375</ele>
        <time>2016-07-06T08:48:21Z</time>
      </trkpt>
      <trkpt lat="43.32395" lon="-0.60693">
        <ele>129.43469238281</ele>
        <time>2016-07-06T08:48:02Z</time>
      </trkpt>
      <trkpt lat="43.32522" lon="-0.60659">
        <ele>129.43469238281</ele>
        <time>2016-07-06T08:47:37Z</time>
      </trkpt>
      <trkpt lat="43.32631" lon="-0.60629">
        <ele>127.99255371094</ele>
        <time>2016-07-06T08:47:16Z</time>
      </trkpt>
      <trkpt lat="43.32737" lon="-0.60615">
        <ele>127.51196289062</ele>
        <time>2016-07-06T08:46:56Z</time>
      </trkpt>
      <trkpt lat="43.32872" lon="-0.6061">
        <ele>126.55065917969</ele>
        <time>2016-07-06T08:46:31Z</time>
      </trkpt>
      <trkpt lat="43.32962" lon="-0.60597">
        <ele>126.55065917969</ele>
        <time>2016-07-06T08:46:14Z</time>
      </trkpt>
      <trkpt lat="43.33063" lon="-0.60583">
        <ele>126.55065917969</ele>
        <time>2016-07-06T08:45:54Z</time>
      </trkpt>
      <trkpt lat="43.33171" lon="-0.60583">
        <ele>125.58935546875</ele>
        <time>2016-07-06T08:45:32Z</time>
      </trkpt>
      <trkpt lat="43.33295" lon="-0.60583">
        <ele>125.58935546875</ele>
        <time>2016-07-06T08:45:07Z</time>
      </trkpt>
      <trkpt lat="43.33406" lon="-0.60584">
        <ele>125.58935546875</ele>
        <time>2016-07-06T08:44:46Z</time>
      </trkpt>
      <trkpt lat="43.33485" lon="-0.60584">
        <ele>126.55065917969</ele>
        <time>2016-07-06T08:44:30Z</time>
      </trkpt>
      <trkpt lat="43.33573" lon="-0.60539">
        <ele>126.06994628906</ele>
        <time>2016-07-06T08:44:11Z</time>
      </trkpt>
      <trkpt lat="43.33643" lon="-0.60505">
        <ele>125.58935546875</ele>
        <time>2016-07-06T08:43:55Z</time>
      </trkpt>
      <trkpt lat="43.3368" lon="-0.60488">
        <ele>124.62805175781</ele>
        <time>2016-07-06T08:43:45Z</time>
      </trkpt>
      <trkpt lat="43.33728" lon="-0.60466">
        <ele>124.14733886719</ele>
        <time>2016-07-06T08:43:32Z</time>
      </trkpt>
      <trkpt lat="43.33784" lon="-0.60451">
        <ele>121.744140625</ele>
        <time>2016-07-06T08:43:19Z</time>
      </trkpt>
      <trkpt lat="43.33892" lon="-0.60432">
        <ele>120.30212402344</ele>
        <time>2016-07-06T08:42:57Z</time>
      </trkpt>
      <trkpt lat="43.33999" lon="-0.6041">
        <ele>120.30212402344</ele>
        <time>2016-07-06T08:42:36Z</time>
      </trkpt>
      <trkpt lat="43.3407" lon="-0.60396">
        <ele>120.30212402344</ele>
        <time>2016-07-06T08:42:23Z</time>
      </trkpt>
      <trkpt lat="43.34148" lon="-0.60383">
        <ele>120.30212402344</ele>
        <time>2016-07-06T08:42:08Z</time>
      </trkpt>
      <trkpt lat="43.34241" lon="-0.60366">
        <ele>120.30212402344</ele>
        <time>2016-07-06T08:41:50Z</time>
      </trkpt>
      <trkpt lat="43.34305" lon="-0.60355">
        <ele>121.744140625</ele>
        <time>2016-07-06T08:41:37Z</time>
      </trkpt>
      <trkpt lat="43.34381" lon="-0.6034">
        <ele>120.78283691406</ele>
        <time>2016-07-06T08:41:21Z</time>
      </trkpt>
      <trkpt lat="43.34463" lon="-0.60324">
        <ele>120.78283691406</ele>
        <time>2016-07-06T08:41:04Z</time>
      </trkpt>
      <trkpt lat="43.34468" lon="-0.60323">
        <ele>120.78283691406</ele>
        <time>2016-07-06T08:41:03Z</time>
      </trkpt>
      <trkpt lat="43.34564" lon="-0.60363">
        <ele>119.3408203125</ele>
        <time>2016-07-06T08:40:44Z</time>
      </trkpt>
      <trkpt lat="43.34684" lon="-0.60445">
        <ele>117.89880371094</ele>
        <time>2016-07-06T08:40:19Z</time>
      </trkpt>
      <trkpt lat="43.34784" lon="-0.60515">
        <ele>117.89880371094</ele>
        <time>2016-07-06T08:39:58Z</time>
      </trkpt>
      <trkpt lat="43.34885" lon="-0.6064">
        <ele>118.86010742188</ele>
        <time>2016-07-06T08:39:34Z</time>
      </trkpt>
      <trkpt lat="43.34938" lon="-0.60763">
        <ele>119.82141113281</ele>
        <time>2016-07-06T08:39:15Z</time>
      </trkpt>
      <trkpt lat="43.34997" lon="-0.60856">
        <ele>119.3408203125</ele>
        <time>2016-07-06T08:38:57Z</time>
      </trkpt>
      <trkpt lat="43.3508" lon="-0.60904">
        <ele>118.86010742188</ele>
        <time>2016-07-06T08:38:37Z</time>
      </trkpt>
      <trkpt lat="43.35172" lon="-0.60946">
        <ele>115.97619628906</ele>
        <time>2016-07-06T08:38:16Z</time>
      </trkpt>
      <trkpt lat="43.35242" lon="-0.61">
        <ele>114.05358886719</ele>
        <time>2016-07-06T08:38:00Z</time>
      </trkpt>
      <trkpt lat="43.35347" lon="-0.61128">
        <ele>115.01489257812</ele>
        <time>2016-07-06T08:37:35Z</time>
      </trkpt>
      <trkpt lat="43.35366" lon="-0.61139">
        <ele>115.01489257812</ele>
        <time>2016-07-06T08:37:31Z</time>
      </trkpt>
      <trkpt lat="43.35391" lon="-0.61143">
        <ele>115.01489257812</ele>
        <time>2016-07-06T08:37:26Z</time>
      </trkpt>
      <trkpt lat="43.35414" lon="-0.6113">
        <ele>115.49560546875</ele>
        <time>2016-07-06T08:37:20Z</time>
      </trkpt>
      <trkpt lat="43.35425" lon="-0.6111">
        <ele>115.01489257812</ele>
        <time>2016-07-06T08:37:16Z</time>
      </trkpt>
      <trkpt lat="43.35435" lon="-0.61098">
        <ele>114.05358886719</ele>
        <time>2016-07-06T08:37:13Z</time>
      </trkpt>
      <trkpt lat="43.35494" lon="-0.61047">
        <ele>113.57299804688</ele>
        <time>2016-07-06T08:36:58Z</time>
      </trkpt>
      <trkpt lat="43.35574" lon="-0.60985">
        <ele>113.57299804688</ele>
        <time>2016-07-06T08:36:41Z</time>
      </trkpt>
      <trkpt lat="43.35676" lon="-0.60908">
        <ele>113.57299804688</ele>
        <time>2016-07-06T08:36:19Z</time>
      </trkpt>
      <trkpt lat="43.35698" lon="-0.60902">
        <ele>113.57299804688</ele>
        <time>2016-07-06T08:36:15Z</time>
      </trkpt>
      <trkpt lat="43.35714" lon="-0.60902">
        <ele>113.57299804688</ele>
        <time>2016-07-06T08:36:12Z</time>
      </trkpt>
      <trkpt lat="43.35819" lon="-0.60913">
        <ele>114.05358886719</ele>
        <time>2016-07-06T08:35:53Z</time>
      </trkpt>
      <trkpt lat="43.35901" lon="-0.60908">
        <ele>113.57299804688</ele>
        <time>2016-07-06T08:35:38Z</time>
      </trkpt>
      <trkpt lat="43.35977" lon="-0.60877">
        <ele>114.5341796875</ele>
        <time>2016-07-06T08:35:23Z</time>
      </trkpt>
      <trkpt lat="43.36006" lon="-0.60867">
        <ele>114.05358886719</ele>
        <time>2016-07-06T08:35:17Z</time>
      </trkpt>
      <trkpt lat="43.36049" lon="-0.6085">
        <ele>113.57299804688</ele>
        <time>2016-07-06T08:35:04Z</time>
      </trkpt>
      <trkpt lat="43.3605" lon="-0.6085">
        <ele>113.57299804688</ele>
        <time>2016-07-06T08:35:03Z</time>
      </trkpt>
      <trkpt lat="43.3607" lon="-0.60845">
        <ele>113.57299804688</ele>
        <time>2016-07-06T08:34:54Z</time>
      </trkpt>
      <trkpt lat="43.36144" lon="-0.60822">
        <ele>114.5341796875</ele>
        <time>2016-07-06T08:34:40Z</time>
      </trkpt>
      <trkpt lat="43.36164" lon="-0.60806">
        <ele>114.5341796875</ele>
        <time>2016-07-06T08:34:35Z</time>
      </trkpt>
      <trkpt lat="43.36185" lon="-0.60783">
        <ele>115.01489257812</ele>
        <time>2016-07-06T08:34:29Z</time>
      </trkpt>
      <trkpt lat="43.36228" lon="-0.60737">
        <ele>115.01489257812</ele>
        <time>2016-07-06T08:34:16Z</time>
      </trkpt>
      <trkpt lat="43.36249" lon="-0.60714">
        <ele>114.5341796875</ele>
        <time>2016-07-06T08:34:11Z</time>
      </trkpt>
      <trkpt lat="43.3628" lon="-0.60675">
        <ele>113.57299804688</ele>
        <time>2016-07-06T08:33:58Z</time>
      </trkpt>
      <trkpt lat="43.36314" lon="-0.60627">
        <ele>114.05358886719</ele>
        <time>2016-07-06T08:33:40Z</time>
      </trkpt>
      <trkpt lat="43.36374" lon="-0.60559">
        <ele>113.57299804688</ele>
        <time>2016-07-06T08:33:22Z</time>
      </trkpt>
      <trkpt lat="43.36414" lon="-0.6053">
        <ele>114.5341796875</ele>
        <time>2016-07-06T08:33:13Z</time>
      </trkpt>
      <trkpt lat="43.36482" lon="-0.60475">
        <ele>112.61157226562</ele>
        <time>2016-07-06T08:32:57Z</time>
      </trkpt>
      <trkpt lat="43.36546" lon="-0.60448">
        <ele>113.09228515625</ele>
        <time>2016-07-06T08:32:42Z</time>
      </trkpt>
      <trkpt lat="43.3658" lon="-0.60437">
        <ele>112.61157226562</ele>
        <time>2016-07-06T08:32:27Z</time>
      </trkpt>
      <trkpt lat="43.36603" lon="-0.60421">
        <ele>113.57299804688</ele>
        <time>2016-07-06T08:32:19Z</time>
      </trkpt>
      <trkpt lat="43.3661" lon="-0.60413">
        <ele>113.57299804688</ele>
        <time>2016-07-06T08:32:17Z</time>
      </trkpt>
      <trkpt lat="43.36627" lon="-0.60385">
        <ele>114.05358886719</ele>
        <time>2016-07-06T08:32:12Z</time>
      </trkpt>
      <trkpt lat="43.36664" lon="-0.60272">
        <ele>113.57299804688</ele>
        <time>2016-07-06T08:31:56Z</time>
      </trkpt>
      <trkpt lat="43.36708" lon="-0.60133">
        <ele>113.57299804688</ele>
        <time>2016-07-06T08:31:35Z</time>
      </trkpt>
      <trkpt lat="43.36746" lon="-0.60009">
        <ele>113.57299804688</ele>
        <time>2016-07-06T08:31:16Z</time>
      </trkpt>
      <trkpt lat="43.36793" lon="-0.59937">
        <ele>113.57299804688</ele>
        <time>2016-07-06T08:31:00Z</time>
      </trkpt>
      <trkpt lat="43.36858" lon="-0.59847">
        <ele>111.65026855469</ele>
        <time>2016-07-06T08:30:41Z</time>
      </trkpt>
      <trkpt lat="43.3687" lon="-0.59846">
        <ele>113.09228515625</ele>
        <time>2016-07-06T08:30:37Z</time>
      </trkpt>
      <trkpt lat="43.36881" lon="-0.59932">
        <ele>113.09228515625</ele>
        <time>2016-07-06T08:30:23Z</time>
      </trkpt>
      <trkpt lat="43.36918" lon="-0.60044">
        <ele>112.13098144531</ele>
        <time>2016-07-06T08:30:06Z</time>
      </trkpt>
      <trkpt lat="43.3692" lon="-0.60075">
        <ele>111.65026855469</ele>
        <time>2016-07-06T08:30:02Z</time>
      </trkpt>
      <trkpt lat="43.36934" lon="-0.60179">
        <ele>111.65026855469</ele>
        <time>2016-07-06T08:29:48Z</time>
      </trkpt>
      <trkpt lat="43.36947" lon="-0.60202">
        <ele>112.13098144531</ele>
        <time>2016-07-06T08:29:44Z</time>
      </trkpt>
      <trkpt lat="43.36975" lon="-0.60225">
        <ele>111.16955566406</ele>
        <time>2016-07-06T08:29:38Z</time>
      </trkpt>
      <trkpt lat="43.37" lon="-0.60254">
        <ele>111.65026855469</ele>
        <time>2016-07-06T08:29:32Z</time>
      </trkpt>
      <trkpt lat="43.37024" lon="-0.6027">
        <ele>111.16955566406</ele>
        <time>2016-07-06T08:29:27Z</time>
      </trkpt>
      <trkpt lat="43.37138" lon="-0.60345">
        <ele>111.16955566406</ele>
        <time>2016-07-06T08:29:04Z</time>
      </trkpt>
      <trkpt lat="43.3721" lon="-0.60417">
        <ele>111.65026855469</ele>
        <time>2016-07-06T08:28:48Z</time>
      </trkpt>
      <trkpt lat="43.37304" lon="-0.60475">
        <ele>111.16955566406</ele>
        <time>2016-07-06T08:28:29Z</time>
      </trkpt>
      <trkpt lat="43.37391" lon="-0.60524">
        <ele>111.16955566406</ele>
        <time>2016-07-06T08:28:12Z</time>
      </trkpt>
      <trkpt lat="43.37512" lon="-0.60534">
        <ele>110.68884277344</ele>
        <time>2016-07-06T08:27:49Z</time>
      </trkpt>
      <trkpt lat="43.37601" lon="-0.60516">
        <ele>110.68884277344</ele>
        <time>2016-07-06T08:27:31Z</time>
      </trkpt>
      <trkpt lat="43.37688" lon="-0.60505">
        <ele>109.72766113281</ele>
        <time>2016-07-06T08:27:14Z</time>
      </trkpt>
      <trkpt lat="43.37716" lon="-0.60522">
        <ele>109.72766113281</ele>
        <time>2016-07-06T08:27:08Z</time>
      </trkpt>
      <trkpt lat="43.37717" lon="-0.60574">
        <ele>109.72766113281</ele>
        <time>2016-07-06T08:27:00Z</time>
      </trkpt>
      <trkpt lat="43.37711" lon="-0.606">
        <ele>109.24694824219</ele>
        <time>2016-07-06T08:26:56Z</time>
      </trkpt>
      <trkpt lat="43.37714" lon="-0.60624">
        <ele>109.72766113281</ele>
        <time>2016-07-06T08:26:52Z</time>
      </trkpt>
      <trkpt lat="43.3772" lon="-0.60634">
        <ele>109.72766113281</ele>
        <time>2016-07-06T08:26:50Z</time>
      </trkpt>
      <trkpt lat="43.37736" lon="-0.60652">
        <ele>109.72766113281</ele>
        <time>2016-07-06T08:26:46Z</time>
      </trkpt>
      <trkpt lat="43.37795" lon="-0.60702">
        <ele>109.24694824219</ele>
        <time>2016-07-06T08:26:33Z</time>
      </trkpt>
      <trkpt lat="43.37806" lon="-0.60716">
        <ele>109.24694824219</ele>
        <time>2016-07-06T08:26:30Z</time>
      </trkpt>
      <trkpt lat="43.37815" lon="-0.60764">
        <ele>109.72766113281</ele>
        <time>2016-07-06T08:26:22Z</time>
      </trkpt>
      <trkpt lat="43.37788" lon="-0.60813">
        <ele>109.24694824219</ele>
        <time>2016-07-06T08:26:13Z</time>
      </trkpt>
      <trkpt lat="43.3778" lon="-0.60841">
        <ele>109.24694824219</ele>
        <time>2016-07-06T08:26:08Z</time>
      </trkpt>
      <trkpt lat="43.37757" lon="-0.60878">
        <ele>109.24694824219</ele>
        <time>2016-07-06T08:26:00Z</time>
      </trkpt>
      <trkpt lat="43.37706" lon="-0.6097">
        <ele>109.72766113281</ele>
        <time>2016-07-06T08:25:44Z</time>
      </trkpt>
      <trkpt lat="43.37684" lon="-0.60989">
        <ele>109.24694824219</ele>
        <time>2016-07-06T08:25:39Z</time>
      </trkpt>
      <trkpt lat="43.37648" lon="-0.61025">
        <ele>109.72766113281</ele>
        <time>2016-07-06T08:25:29Z</time>
      </trkpt>
      <trkpt lat="43.37622" lon="-0.61048">
        <ele>109.24694824219</ele>
        <time>2016-07-06T08:25:23Z</time>
      </trkpt>
      <trkpt lat="43.376" lon="-0.61045">
        <ele>110.20825195312</ele>
        <time>2016-07-06T08:25:19Z</time>
      </trkpt>
      <trkpt lat="43.37582" lon="-0.61049">
        <ele>110.20825195312</ele>
        <time>2016-07-06T08:25:15Z</time>
      </trkpt>
      <trkpt lat="43.37564" lon="-0.61063">
        <ele>109.72766113281</ele>
        <time>2016-07-06T08:25:10Z</time>
      </trkpt>
      <trkpt lat="43.37554" lon="-0.61105">
        <ele>110.20825195312</ele>
        <time>2016-07-06T08:25:01Z</time>
      </trkpt>
      <trkpt lat="43.37526" lon="-0.61128">
        <ele>109.24694824219</ele>
        <time>2016-07-06T08:24:51Z</time>
      </trkpt>
      <trkpt lat="43.37504" lon="-0.61139">
        <ele>109.24694824219</ele>
        <time>2016-07-06T08:24:46Z</time>
      </trkpt>
      <trkpt lat="43.37482" lon="-0.61144">
        <ele>109.72766113281</ele>
        <time>2016-07-06T08:24:41Z</time>
      </trkpt>
      <trkpt lat="43.37439" lon="-0.61128">
        <ele>109.72766113281</ele>
        <time>2016-07-06T08:24:31Z</time>
      </trkpt>
      <trkpt lat="43.37421" lon="-0.61124">
        <ele>109.72766113281</ele>
        <time>2016-07-06T08:24:27Z</time>
      </trkpt>
      <trkpt lat="43.37389" lon="-0.61115">
        <ele>110.20825195312</ele>
        <time>2016-07-06T08:24:20Z</time>
      </trkpt>
      <trkpt lat="43.37363" lon="-0.61111">
        <ele>110.20825195312</ele>
        <time>2016-07-06T08:24:14Z</time>
      </trkpt>
      <trkpt lat="43.37346" lon="-0.61102">
        <ele>109.72766113281</ele>
        <time>2016-07-06T08:24:10Z</time>
      </trkpt>
      <trkpt lat="43.37334" lon="-0.61091">
        <ele>109.72766113281</ele>
        <time>2016-07-06T08:24:07Z</time>
      </trkpt>
      <trkpt lat="43.37325" lon="-0.61076">
        <ele>110.20825195312</ele>
        <time>2016-07-06T08:24:04Z</time>
      </trkpt>
      <trkpt lat="43.3732" lon="-0.61066">
        <ele>109.72766113281</ele>
        <time>2016-07-06T08:24:02Z</time>
      </trkpt>
      <trkpt lat="43.37297" lon="-0.61046">
        <ele>109.72766113281</ele>
        <time>2016-07-06T08:23:56Z</time>
      </trkpt>
      <trkpt lat="43.37283" lon="-0.61043">
        <ele>110.20825195312</ele>
        <time>2016-07-06T08:23:53Z</time>
      </trkpt>
      <trkpt lat="43.37261" lon="-0.61043">
        <ele>110.68884277344</ele>
        <time>2016-07-06T08:23:48Z</time>
      </trkpt>
      <trkpt lat="43.37246" lon="-0.61034">
        <ele>109.72766113281</ele>
        <time>2016-07-06T08:23:44Z</time>
      </trkpt>
      <trkpt lat="43.37243" lon="-0.61031">
        <ele>109.72766113281</ele>
        <time>2016-07-06T08:23:43Z</time>
      </trkpt>
      <trkpt lat="43.37183" lon="-0.60969">
        <ele>110.20825195312</ele>
        <time>2016-07-06T08:23:27Z</time>
      </trkpt>
      <trkpt lat="43.37133" lon="-0.60922">
        <ele>110.68884277344</ele>
        <time>2016-07-06T08:23:14Z</time>
      </trkpt>
      <trkpt lat="43.37076" lon="-0.60868">
        <ele>111.16955566406</ele>
        <time>2016-07-06T08:22:58Z</time>
      </trkpt>
      <trkpt lat="43.37054" lon="-0.60847">
        <ele>111.16955566406</ele>
        <time>2016-07-06T08:22:52Z</time>
      </trkpt>
      <trkpt lat="43.37024" lon="-0.60818">
        <ele>111.16955566406</ele>
        <time>2016-07-06T08:22:42Z</time>
      </trkpt>
      <trkpt lat="43.36997" lon="-0.60789">
        <ele>111.16955566406</ele>
        <time>2016-07-06T08:22:30Z</time>
      </trkpt>
      <trkpt lat="43.36955" lon="-0.60741">
        <ele>111.16955566406</ele>
        <time>2016-07-06T08:22:15Z</time>
      </trkpt>
      <trkpt lat="43.36936" lon="-0.60718">
        <ele>110.68884277344</ele>
        <time>2016-07-06T08:22:05Z</time>
      </trkpt>
      <trkpt lat="43.36933" lon="-0.60715">
        <ele>111.16955566406</ele>
        <time>2016-07-06T08:21:48Z</time>
      </trkpt>
      <trkpt lat="43.36934" lon="-0.60719">
        <ele>111.16955566406</ele>
        <time>2016-07-06T08:21:23Z</time>
      </trkpt>
      <trkpt lat="43.36935" lon="-0.60715">
        <ele>111.16955566406</ele>
        <time>2016-07-06T08:20:58Z</time>
      </trkpt>
      <trkpt lat="43.36931" lon="-0.60709">
        <ele>110.68884277344</ele>
        <time>2016-07-06T08:20:46Z</time>
      </trkpt>
      <trkpt lat="43.36937" lon="-0.60689">
        <ele>111.16955566406</ele>
        <time>2016-07-06T08:20:37Z</time>
      </trkpt>
      <trkpt lat="43.36961" lon="-0.60644">
        <ele>111.16955566406</ele>
        <time>2016-07-06T08:20:27Z</time>
      </trkpt>
      <trkpt lat="43.36974" lon="-0.60615">
        <ele>110.68884277344</ele>
        <time>2016-07-06T08:20:21Z</time>
      </trkpt>
      <trkpt lat="43.36967" lon="-0.60589">
        <ele>110.68884277344</ele>
        <time>2016-07-06T08:20:16Z</time>
      </trkpt>
      <trkpt lat="43.36958" lon="-0.60567">
        <ele>111.16955566406</ele>
        <time>2016-07-06T08:20:12Z</time>
      </trkpt>
      <trkpt lat="43.36944" lon="-0.60543">
        <ele>111.65026855469</ele>
        <time>2016-07-06T08:20:07Z</time>
      </trkpt>
      <trkpt lat="43.36924" lon="-0.60516">
        <ele>111.16955566406</ele>
        <time>2016-07-06T08:19:58Z</time>
      </trkpt>
      <trkpt lat="43.36903" lon="-0.6048">
        <ele>111.16955566406</ele>
        <time>2016-07-06T08:19:48Z</time>
      </trkpt>
      <trkpt lat="43.3687" lon="-0.60454">
        <ele>111.16955566406</ele>
        <time>2016-07-06T08:19:37Z</time>
      </trkpt>
      <trkpt lat="43.36863" lon="-0.60445">
        <ele>110.68884277344</ele>
        <time>2016-07-06T08:19:33Z</time>
      </trkpt>
      <trkpt lat="43.36861" lon="-0.60423">
        <ele>111.65026855469</ele>
        <time>2016-07-06T08:19:25Z</time>
      </trkpt>
      <trkpt lat="43.36852" lon="-0.60398">
        <ele>111.65026855469</ele>
        <time>2016-07-06T08:19:18Z</time>
      </trkpt>
      <trkpt lat="43.36805" lon="-0.60359">
        <ele>111.65026855469</ele>
        <time>2016-07-06T08:19:06Z</time>
      </trkpt>
      <trkpt lat="43.36744" lon="-0.60291">
        <ele>112.13098144531</ele>
        <time>2016-07-06T08:18:52Z</time>
      </trkpt>
      <trkpt lat="43.36685" lon="-0.60239">
        <ele>112.13098144531</ele>
        <time>2016-07-06T08:18:39Z</time>
      </trkpt>
      <trkpt lat="43.36667" lon="-0.60256">
        <ele>113.09228515625</ele>
        <time>2016-07-06T08:18:33Z</time>
      </trkpt>
      <trkpt lat="43.36654" lon="-0.60298">
        <ele>113.09228515625</ele>
        <time>2016-07-06T08:18:27Z</time>
      </trkpt>
      <trkpt lat="43.36617" lon="-0.60403">
        <ele>113.09228515625</ele>
        <time>2016-07-06T08:18:12Z</time>
      </trkpt>
      <trkpt lat="43.36598" lon="-0.60413">
        <ele>112.61157226562</ele>
        <time>2016-07-06T08:18:07Z</time>
      </trkpt>
      <trkpt lat="43.36506" lon="-0.60318">
        <ele>112.61157226562</ele>
        <time>2016-07-06T08:17:47Z</time>
      </trkpt>
      <trkpt lat="43.36434" lon="-0.60245">
        <ele>113.57299804688</ele>
        <time>2016-07-06T08:17:32Z</time>
      </trkpt>
      <trkpt lat="43.36425" lon="-0.60234">
        <ele>112.61157226562</ele>
        <time>2016-07-06T08:17:30Z</time>
      </trkpt>
      <trkpt lat="43.36364" lon="-0.60125">
        <ele>113.57299804688</ele>
        <time>2016-07-06T08:17:13Z</time>
      </trkpt>
      <trkpt lat="43.36337" lon="-0.60113">
        <ele>113.57299804688</ele>
        <time>2016-07-06T08:17:08Z</time>
      </trkpt>
      <trkpt lat="43.36313" lon="-0.60114">
        <ele>113.57299804688</ele>
        <time>2016-07-06T08:17:04Z</time>
      </trkpt>
      <trkpt lat="43.36256" lon="-0.60092">
        <ele>114.5341796875</ele>
        <time>2016-07-06T08:16:54Z</time>
      </trkpt>
      <trkpt lat="43.36215" lon="-0.60089">
        <ele>115.01489257812</ele>
        <time>2016-07-06T08:16:47Z</time>
      </trkpt>
      <trkpt lat="43.36187" lon="-0.60076">
        <ele>114.05358886719</ele>
        <time>2016-07-06T08:16:42Z</time>
      </trkpt>
      <trkpt lat="43.3615" lon="-0.60037">
        <ele>115.01489257812</ele>
        <time>2016-07-06T08:16:34Z</time>
      </trkpt>
      <trkpt lat="43.36057" lon="-0.5992">
        <ele>114.5341796875</ele>
        <time>2016-07-06T08:16:12Z</time>
      </trkpt>
      <trkpt lat="43.35975" lon="-0.59812">
        <ele>115.49560546875</ele>
        <time>2016-07-06T08:15:52Z</time>
      </trkpt>
      <trkpt lat="43.35954" lon="-0.59783">
        <ele>115.01489257812</ele>
        <time>2016-07-06T08:15:47Z</time>
      </trkpt>
      <trkpt lat="43.35942" lon="-0.59738">
        <ele>115.49560546875</ele>
        <time>2016-07-06T08:15:40Z</time>
      </trkpt>
      <trkpt lat="43.3599" lon="-0.59646">
        <ele>115.49560546875</ele>
        <time>2016-07-06T08:15:25Z</time>
      </trkpt>
      <trkpt lat="43.36005" lon="-0.59612">
        <ele>115.97619628906</ele>
        <time>2016-07-06T08:15:20Z</time>
      </trkpt>
      <trkpt lat="43.36009" lon="-0.59589">
        <ele>115.97619628906</ele>
        <time>2016-07-06T08:15:17Z</time>
      </trkpt>
      <trkpt lat="43.3601" lon="-0.59536">
        <ele>117.41821289062</ele>
        <time>2016-07-06T08:15:09Z</time>
      </trkpt>
      <trkpt lat="43.36" lon="-0.5952">
        <ele>116.45678710938</ele>
        <time>2016-07-06T08:15:03Z</time>
      </trkpt>
      <trkpt lat="43.35956" lon="-0.59494">
        <ele>115.97619628906</ele>
        <time>2016-07-06T08:14:52Z</time>
      </trkpt>
      <trkpt lat="43.35949" lon="-0.59485">
        <ele>115.97619628906</ele>
        <time>2016-07-06T08:14:50Z</time>
      </trkpt>
      <trkpt lat="43.35938" lon="-0.59472">
        <ele>115.97619628906</ele>
        <time>2016-07-06T08:14:47Z</time>
      </trkpt>
      <trkpt lat="43.3592" lon="-0.59455">
        <ele>115.97619628906</ele>
        <time>2016-07-06T08:14:43Z</time>
      </trkpt>
      <trkpt lat="43.35903" lon="-0.5944">
        <ele>115.97619628906</ele>
        <time>2016-07-06T08:14:39Z</time>
      </trkpt>
      <trkpt lat="43.35889" lon="-0.59427">
        <ele>116.45678710938</ele>
        <time>2016-07-06T08:14:35Z</time>
      </trkpt>
      <trkpt lat="43.35885" lon="-0.59423">
        <ele>116.45678710938</ele>
        <time>2016-07-06T08:14:34Z</time>
      </trkpt>
      <trkpt lat="43.3587" lon="-0.5938">
        <ele>115.01489257812</ele>
        <time>2016-07-06T08:14:26Z</time>
      </trkpt>
      <trkpt lat="43.35844" lon="-0.59358">
        <ele>115.49560546875</ele>
        <time>2016-07-06T08:14:20Z</time>
      </trkpt>
      <trkpt lat="43.35827" lon="-0.59348">
        <ele>115.97619628906</ele>
        <time>2016-07-06T08:14:16Z</time>
      </trkpt>
      <trkpt lat="43.3581" lon="-0.59332">
        <ele>117.41821289062</ele>
        <time>2016-07-06T08:14:11Z</time>
      </trkpt>
      <trkpt lat="43.35811" lon="-0.59285">
        <ele>116.9375</ele>
        <time>2016-07-06T08:14:03Z</time>
      </trkpt>
      <trkpt lat="43.35811" lon="-0.59259">
        <ele>116.45678710938</ele>
        <time>2016-07-06T08:13:59Z</time>
      </trkpt>
      <trkpt lat="43.35809" lon="-0.59246">
        <ele>116.9375</ele>
        <time>2016-07-06T08:13:57Z</time>
      </trkpt>
      <trkpt lat="43.35814" lon="-0.59173">
        <ele>115.97619628906</ele>
        <time>2016-07-06T08:13:45Z</time>
      </trkpt>
      <trkpt lat="43.35809" lon="-0.59138">
        <ele>116.45678710938</ele>
        <time>2016-07-06T08:13:39Z</time>
      </trkpt>
      <trkpt lat="43.35794" lon="-0.59123">
        <ele>116.45678710938</ele>
        <time>2016-07-06T08:13:35Z</time>
      </trkpt>
      <trkpt lat="43.35785" lon="-0.59119">
        <ele>115.97619628906</ele>
        <time>2016-07-06T08:13:33Z</time>
      </trkpt>
      <trkpt lat="43.35767" lon="-0.59095">
        <ele>115.97619628906</ele>
        <time>2016-07-06T08:13:28Z</time>
      </trkpt>
      <trkpt lat="43.35757" lon="-0.59057">
        <ele>116.45678710938</ele>
        <time>2016-07-06T08:13:22Z</time>
      </trkpt>
      <trkpt lat="43.35754" lon="-0.5903">
        <ele>115.49560546875</ele>
        <time>2016-07-06T08:13:18Z</time>
      </trkpt>
      <trkpt lat="43.35752" lon="-0.58984">
        <ele>116.45678710938</ele>
        <time>2016-07-06T08:13:11Z</time>
      </trkpt>
      <trkpt lat="43.35746" lon="-0.58962">
        <ele>116.9375</ele>
        <time>2016-07-06T08:13:07Z</time>
      </trkpt>
      <trkpt lat="43.35741" lon="-0.58952">
        <ele>116.9375</ele>
        <time>2016-07-06T08:13:05Z</time>
      </trkpt>
      <trkpt lat="43.35718" lon="-0.5893">
        <ele>116.45678710938</ele>
        <time>2016-07-06T08:12:59Z</time>
      </trkpt>
      <trkpt lat="43.35702" lon="-0.58923">
        <ele>115.97619628906</ele>
        <time>2016-07-06T08:12:56Z</time>
      </trkpt>
      <trkpt lat="43.35688" lon="-0.58914">
        <ele>115.97619628906</ele>
        <time>2016-07-06T08:12:53Z</time>
      </trkpt>
      <trkpt lat="43.35678" lon="-0.58909">
        <ele>116.9375</ele>
        <time>2016-07-06T08:12:51Z</time>
      </trkpt>
      <trkpt lat="43.35658" lon="-0.58894">
        <ele>116.45678710938</ele>
        <time>2016-07-06T08:12:47Z</time>
      </trkpt>
      <trkpt lat="43.3564" lon="-0.58885">
        <ele>117.41821289062</ele>
        <time>2016-07-06T08:12:43Z</time>
      </trkpt>
      <trkpt lat="43.35615" lon="-0.58876">
        <ele>116.9375</ele>
        <time>2016-07-06T08:12:37Z</time>
      </trkpt>
      <trkpt lat="43.35602" lon="-0.58867">
        <ele>117.41821289062</ele>
        <time>2016-07-06T08:12:33Z</time>
      </trkpt>
      <trkpt lat="43.35599" lon="-0.58857">
        <ele>116.9375</ele>
        <time>2016-07-06T08:12:31Z</time>
      </trkpt>
      <trkpt lat="43.35598" lon="-0.58841">
        <ele>117.41821289062</ele>
        <time>2016-07-06T08:12:28Z</time>
      </trkpt>
      <trkpt lat="43.3559" lon="-0.58795">
        <ele>117.41821289062</ele>
        <time>2016-07-06T08:12:19Z</time>
      </trkpt>
      <trkpt lat="43.35592" lon="-0.58781">
        <ele>116.9375</ele>
        <time>2016-07-06T08:12:16Z</time>
      </trkpt>
      <trkpt lat="43.3559" lon="-0.58772">
        <ele>117.41821289062</ele>
        <time>2016-07-06T08:12:14Z</time>
      </trkpt>
      <trkpt lat="43.35578" lon="-0.5871">
        <ele>116.9375</ele>
        <time>2016-07-06T08:12:03Z</time>
      </trkpt>
      <trkpt lat="43.35571" lon="-0.58663">
        <ele>118.37939453125</ele>
        <time>2016-07-06T08:11:56Z</time>
      </trkpt>
      <trkpt lat="43.3556" lon="-0.58592">
        <ele>117.89880371094</ele>
        <time>2016-07-06T08:11:45Z</time>
      </trkpt>
      <trkpt lat="43.35559" lon="-0.58578">
        <ele>117.89880371094</ele>
        <time>2016-07-06T08:11:43Z</time>
      </trkpt>
      <trkpt lat="43.35568" lon="-0.58531">
        <ele>118.37939453125</ele>
        <time>2016-07-06T08:11:36Z</time>
      </trkpt>
      <trkpt lat="43.35587" lon="-0.58491">
        <ele>117.89880371094</ele>
        <time>2016-07-06T08:11:29Z</time>
      </trkpt>
      <trkpt lat="43.35599" lon="-0.58462">
        <ele>117.89880371094</ele>
        <time>2016-07-06T08:11:24Z</time>
      </trkpt>
      <trkpt lat="43.35604" lon="-0.58441">
        <ele>117.89880371094</ele>
        <time>2016-07-06T08:11:20Z</time>
      </trkpt>
      <trkpt lat="43.35608" lon="-0.58409">
        <ele>117.89880371094</ele>
        <time>2016-07-06T08:11:15Z</time>
      </trkpt>
      <trkpt lat="43.35609" lon="-0.58395">
        <ele>117.89880371094</ele>
        <time>2016-07-06T08:11:13Z</time>
      </trkpt>
      <trkpt lat="43.35613" lon="-0.58351">
        <ele>117.89880371094</ele>
        <time>2016-07-06T08:11:06Z</time>
      </trkpt>
      <trkpt lat="43.35621" lon="-0.58322">
        <ele>117.41821289062</ele>
        <time>2016-07-06T08:11:01Z</time>
      </trkpt>
      <trkpt lat="43.35635" lon="-0.58306">
        <ele>117.41821289062</ele>
        <time>2016-07-06T08:10:57Z</time>
      </trkpt>
      <trkpt lat="43.3566" lon="-0.58292">
        <ele>118.37939453125</ele>
        <time>2016-07-06T08:10:50Z</time>
      </trkpt>
      <trkpt lat="43.35663" lon="-0.58271">
        <ele>118.37939453125</ele>
        <time>2016-07-06T08:10:45Z</time>
      </trkpt>
      <trkpt lat="43.35653" lon="-0.58206">
        <ele>119.3408203125</ele>
        <time>2016-07-06T08:10:33Z</time>
      </trkpt>
      <trkpt lat="43.35657" lon="-0.58167">
        <ele>118.37939453125</ele>
        <time>2016-07-06T08:10:28Z</time>
      </trkpt>
      <trkpt lat="43.35694" lon="-0.5803">
        <ele>118.86010742188</ele>
        <time>2016-07-06T08:10:10Z</time>
      </trkpt>
      <trkpt lat="43.3574" lon="-0.57865">
        <ele>119.82141113281</ele>
        <time>2016-07-06T08:09:48Z</time>
      </trkpt>
      <trkpt lat="43.35793" lon="-0.57684">
        <ele>118.86010742188</ele>
        <time>2016-07-06T08:09:23Z</time>
      </trkpt>
      <trkpt lat="43.35811" lon="-0.57619">
        <ele>119.3408203125</ele>
        <time>2016-07-06T08:09:12Z</time>
      </trkpt>
      <trkpt lat="43.35806" lon="-0.57557">
        <ele>118.37939453125</ele>
        <time>2016-07-06T08:09:00Z</time>
      </trkpt>
      <trkpt lat="43.35778" lon="-0.57472">
        <ele>118.86010742188</ele>
        <time>2016-07-06T08:08:48Z</time>
      </trkpt>
      <trkpt lat="43.35745" lon="-0.57335">
        <ele>119.82141113281</ele>
        <time>2016-07-06T08:08:29Z</time>
      </trkpt>
      <trkpt lat="43.35721" lon="-0.57275">
        <ele>118.86010742188</ele>
        <time>2016-07-06T08:08:20Z</time>
      </trkpt>
      <trkpt lat="43.35678" lon="-0.57145">
        <ele>119.82141113281</ele>
        <time>2016-07-06T08:08:01Z</time>
      </trkpt>
      <trkpt lat="43.35668" lon="-0.57032">
        <ele>120.30212402344</ele>
        <time>2016-07-06T08:07:45Z</time>
      </trkpt>
      <trkpt lat="43.35685" lon="-0.569">
        <ele>120.30212402344</ele>
        <time>2016-07-06T08:07:26Z</time>
      </trkpt>
      <trkpt lat="43.35691" lon="-0.56873">
        <ele>119.82141113281</ele>
        <time>2016-07-06T08:07:22Z</time>
      </trkpt>
      <trkpt lat="43.35693" lon="-0.56859">
        <ele>120.30212402344</ele>
        <time>2016-07-06T08:07:20Z</time>
      </trkpt>
      <trkpt lat="43.35716" lon="-0.56765">
        <ele>120.78283691406</ele>
        <time>2016-07-06T08:07:06Z</time>
      </trkpt>
      <trkpt lat="43.35716" lon="-0.56754">
        <ele>120.30212402344</ele>
        <time>2016-07-06T08:07:04Z</time>
      </trkpt>
      <trkpt lat="43.3571" lon="-0.56743">
        <ele>119.82141113281</ele>
        <time>2016-07-06T08:07:00Z</time>
      </trkpt>
      <trkpt lat="43.35653" lon="-0.56783">
        <ele>120.30212402344</ele>
        <time>2016-07-06T08:06:46Z</time>
      </trkpt>
      <trkpt lat="43.35595" lon="-0.56823">
        <ele>120.78283691406</ele>
        <time>2016-07-06T08:06:33Z</time>
      </trkpt>
      <trkpt lat="43.35539" lon="-0.56857">
        <ele>120.78283691406</ele>
        <time>2016-07-06T08:06:20Z</time>
      </trkpt>
      <trkpt lat="43.35524" lon="-0.56823">
        <ele>120.30212402344</ele>
        <time>2016-07-06T08:06:11Z</time>
      </trkpt>
      <trkpt lat="43.35523" lon="-0.56798">
        <ele>120.78283691406</ele>
        <time>2016-07-06T08:06:07Z</time>
      </trkpt>
      <trkpt lat="43.35511" lon="-0.56676">
        <ele>120.78283691406</ele>
        <time>2016-07-06T08:05:49Z</time>
      </trkpt>
      <trkpt lat="43.35503" lon="-0.56649">
        <ele>120.78283691406</ele>
        <time>2016-07-06T08:05:45Z</time>
      </trkpt>
      <trkpt lat="43.35475" lon="-0.56567">
        <ele>120.30212402344</ele>
        <time>2016-07-06T08:05:33Z</time>
      </trkpt>
      <trkpt lat="43.3547" lon="-0.56514">
        <ele>120.30212402344</ele>
        <time>2016-07-06T08:05:26Z</time>
      </trkpt>
      <trkpt lat="43.35447" lon="-0.56481">
        <ele>120.78283691406</ele>
        <time>2016-07-06T08:05:19Z</time>
      </trkpt>
      <trkpt lat="43.35408" lon="-0.56478">
        <ele>121.744140625</ele>
        <time>2016-07-06T08:05:12Z</time>
      </trkpt>
      <trkpt lat="43.35298" lon="-0.56481">
        <ele>122.70544433594</ele>
        <time>2016-07-06T08:04:52Z</time>
      </trkpt>
      <trkpt lat="43.35198" lon="-0.56468">
        <ele>122.70544433594</ele>
        <time>2016-07-06T08:04:33Z</time>
      </trkpt>
      <trkpt lat="43.35142" lon="-0.56452">
        <ele>122.70544433594</ele>
        <time>2016-07-06T08:04:21Z</time>
      </trkpt>
      <trkpt lat="43.35134" lon="-0.56433">
        <ele>122.70544433594</ele>
        <time>2016-07-06T08:04:17Z</time>
      </trkpt>
      <trkpt lat="43.35115" lon="-0.56381">
        <ele>122.22473144531</ele>
        <time>2016-07-06T08:04:08Z</time>
      </trkpt>
      <trkpt lat="43.35121" lon="-0.56246">
        <ele>122.22473144531</ele>
        <time>2016-07-06T08:03:50Z</time>
      </trkpt>
      <trkpt lat="43.35119" lon="-0.56121">
        <ele>121.744140625</ele>
        <time>2016-07-06T08:03:34Z</time>
      </trkpt>
      <trkpt lat="43.35084" lon="-0.56014">
        <ele>121.744140625</ele>
        <time>2016-07-06T08:03:19Z</time>
      </trkpt>
      <trkpt lat="43.35041" lon="-0.5589">
        <ele>122.70544433594</ele>
        <time>2016-07-06T08:03:01Z</time>
      </trkpt>
      <trkpt lat="43.35022" lon="-0.55835">
        <ele>122.70544433594</ele>
        <time>2016-07-06T08:02:53Z</time>
      </trkpt>
      <trkpt lat="43.34983" lon="-0.55715">
        <ele>123.18615722656</ele>
        <time>2016-07-06T08:02:36Z</time>
      </trkpt>
      <trkpt lat="43.34965" lon="-0.55669">
        <ele>122.70544433594</ele>
        <time>2016-07-06T08:02:29Z</time>
      </trkpt>
      <trkpt lat="43.34969" lon="-0.55637">
        <ele>122.22473144531</ele>
        <time>2016-07-06T08:02:24Z</time>
      </trkpt>
      <trkpt lat="43.34992" lon="-0.55599">
        <ele>123.18615722656</ele>
        <time>2016-07-06T08:02:17Z</time>
      </trkpt>
      <trkpt lat="43.34999" lon="-0.55564">
        <ele>123.18615722656</ele>
        <time>2016-07-06T08:02:12Z</time>
      </trkpt>
      <trkpt lat="43.34988" lon="-0.5551">
        <ele>123.18615722656</ele>
        <time>2016-07-06T08:02:05Z</time>
      </trkpt>
      <trkpt lat="43.34978" lon="-0.5545">
        <ele>123.18615722656</ele>
        <time>2016-07-06T08:01:57Z</time>
      </trkpt>
      <trkpt lat="43.35023" lon="-0.55337">
        <ele>123.18615722656</ele>
        <time>2016-07-06T08:01:41Z</time>
      </trkpt>
      <trkpt lat="43.35042" lon="-0.55287">
        <ele>123.66674804688</ele>
        <time>2016-07-06T08:01:34Z</time>
      </trkpt>
      <trkpt lat="43.35068" lon="-0.55277">
        <ele>123.66674804688</ele>
        <time>2016-07-06T08:01:28Z</time>
      </trkpt>
      <trkpt lat="43.35174" lon="-0.55378">
        <ele>123.18615722656</ele>
        <time>2016-07-06T08:01:08Z</time>
      </trkpt>
      <trkpt lat="43.35198" lon="-0.55385">
        <ele>123.18615722656</ele>
        <time>2016-07-06T08:01:04Z</time>
      </trkpt>
      <trkpt lat="43.35215" lon="-0.5538">
        <ele>123.66674804688</ele>
        <time>2016-07-06T08:01:01Z</time>
      </trkpt>
      <trkpt lat="43.35228" lon="-0.55345">
        <ele>124.62805175781</ele>
        <time>2016-07-06T08:00:55Z</time>
      </trkpt>
      <trkpt lat="43.35222" lon="-0.55312">
        <ele>125.10876464844</ele>
        <time>2016-07-06T08:00:51Z</time>
      </trkpt>
      <trkpt lat="43.35218" lon="-0.55238">
        <ele>126.55065917969</ele>
        <time>2016-07-06T08:00:42Z</time>
      </trkpt>
      <trkpt lat="43.35205" lon="-0.55208">
        <ele>126.55065917969</ele>
        <time>2016-07-06T08:00:38Z</time>
      </trkpt>
      <trkpt lat="43.35154" lon="-0.55133">
        <ele>128.9541015625</ele>
        <time>2016-07-06T08:00:25Z</time>
      </trkpt>
      <trkpt lat="43.35139" lon="-0.55124">
        <ele>129.43469238281</ele>
        <time>2016-07-06T08:00:22Z</time>
      </trkpt>
      <trkpt lat="43.35097" lon="-0.55104">
        <ele>129.91528320312</ele>
        <time>2016-07-06T08:00:13Z</time>
      </trkpt>
      <trkpt lat="43.35086" lon="-0.55099">
        <ele>128.47338867188</ele>
        <time>2016-07-06T08:00:11Z</time>
      </trkpt>
      <trkpt lat="43.35029" lon="-0.55063">
        <ele>127.99255371094</ele>
        <time>2016-07-06T08:00:00Z</time>
      </trkpt>
      <trkpt lat="43.3501" lon="-0.55041">
        <ele>128.9541015625</ele>
        <time>2016-07-06T07:59:56Z</time>
      </trkpt>
      <trkpt lat="43.34973" lon="-0.54986">
        <ele>127.99255371094</ele>
        <time>2016-07-06T07:59:48Z</time>
      </trkpt>
      <trkpt lat="43.34942" lon="-0.54933">
        <ele>131.35729980469</ele>
        <time>2016-07-06T07:59:41Z</time>
      </trkpt>
      <trkpt lat="43.34924" lon="-0.54915">
        <ele>131.35729980469</ele>
        <time>2016-07-06T07:59:37Z</time>
      </trkpt>
      <trkpt lat="43.34888" lon="-0.54896">
        <ele>131.35729980469</ele>
        <time>2016-07-06T07:59:30Z</time>
      </trkpt>
      <trkpt lat="43.34858" lon="-0.5489">
        <ele>131.35729980469</ele>
        <time>2016-07-06T07:59:25Z</time>
      </trkpt>
      <trkpt lat="43.34839" lon="-0.54874">
        <ele>130.87670898438</ele>
        <time>2016-07-06T07:59:21Z</time>
      </trkpt>
      <trkpt lat="43.34805" lon="-0.54826">
        <ele>129.91528320312</ele>
        <time>2016-07-06T07:59:14Z</time>
      </trkpt>
      <trkpt lat="43.3478" lon="-0.54796">
        <ele>131.35729980469</ele>
        <time>2016-07-06T07:59:10Z</time>
      </trkpt>
      <trkpt lat="43.34774" lon="-0.54789">
        <ele>131.35729980469</ele>
        <time>2016-07-06T07:59:09Z</time>
      </trkpt>
      <trkpt lat="43.34754" lon="-0.54763">
        <ele>133.76049804688</ele>
        <time>2016-07-06T07:59:05Z</time>
      </trkpt>
      <trkpt lat="43.34731" lon="-0.54736">
        <ele>134.2412109375</ele>
        <time>2016-07-06T07:58:59Z</time>
      </trkpt>
      <trkpt lat="43.34671" lon="-0.54688">
        <ele>133.27990722656</ele>
        <time>2016-07-06T07:58:47Z</time>
      </trkpt>
      <trkpt lat="43.34657" lon="-0.54678">
        <ele>134.72192382812</ele>
        <time>2016-07-06T07:58:44Z</time>
      </trkpt>
      <trkpt lat="43.34643" lon="-0.5467">
        <ele>134.2412109375</ele>
        <time>2016-07-06T07:58:39Z</time>
      </trkpt>
      <trkpt lat="43.34634" lon="-0.54666">
        <ele>133.27990722656</ele>
        <time>2016-07-06T07:58:36Z</time>
      </trkpt>
      <trkpt lat="43.34606" lon="-0.54635">
        <ele>131.35729980469</ele>
        <time>2016-07-06T07:58:27Z</time>
      </trkpt>
      <trkpt lat="43.34602" lon="-0.54621">
        <ele>131.837890625</ele>
        <time>2016-07-06T07:58:25Z</time>
      </trkpt>
      <trkpt lat="43.34586" lon="-0.54566">
        <ele>131.35729980469</ele>
        <time>2016-07-06T07:58:17Z</time>
      </trkpt>
      <trkpt lat="43.34551" lon="-0.54546">
        <ele>131.35729980469</ele>
        <time>2016-07-06T07:58:09Z</time>
      </trkpt>
      <trkpt lat="43.34537" lon="-0.54551">
        <ele>130.87670898438</ele>
        <time>2016-07-06T07:58:06Z</time>
      </trkpt>
      <trkpt lat="43.34514" lon="-0.54546">
        <ele>130.87670898438</ele>
        <time>2016-07-06T07:58:01Z</time>
      </trkpt>
      <trkpt lat="43.34503" lon="-0.54539">
        <ele>130.87670898438</ele>
        <time>2016-07-06T07:57:58Z</time>
      </trkpt>
      <trkpt lat="43.34438" lon="-0.54508">
        <ele>129.91528320312</ele>
        <time>2016-07-06T07:57:44Z</time>
      </trkpt>
      <trkpt lat="43.34412" lon="-0.54503">
        <ele>128.9541015625</ele>
        <time>2016-07-06T07:57:39Z</time>
      </trkpt>
      <trkpt lat="43.34341" lon="-0.54435">
        <ele>127.03137207031</ele>
        <time>2016-07-06T07:57:24Z</time>
      </trkpt>
      <trkpt lat="43.34322" lon="-0.544">
        <ele>128.47338867188</ele>
        <time>2016-07-06T07:57:19Z</time>
      </trkpt>
      <trkpt lat="43.34315" lon="-0.54368">
        <ele>129.91528320312</ele>
        <time>2016-07-06T07:57:15Z</time>
      </trkpt>
      <trkpt lat="43.34303" lon="-0.54336">
        <ele>129.43469238281</ele>
        <time>2016-07-06T07:57:10Z</time>
      </trkpt>
      <trkpt lat="43.34291" lon="-0.54314">
        <ele>129.91528320312</ele>
        <time>2016-07-06T07:57:06Z</time>
      </trkpt>
      <trkpt lat="43.34283" lon="-0.54298">
        <ele>129.43469238281</ele>
        <time>2016-07-06T07:57:03Z</time>
      </trkpt>
      <trkpt lat="43.3427" lon="-0.54276">
        <ele>129.43469238281</ele>
        <time>2016-07-06T07:56:59Z</time>
      </trkpt>
      <trkpt lat="43.3425" lon="-0.54246">
        <ele>127.99255371094</ele>
        <time>2016-07-06T07:56:54Z</time>
      </trkpt>
      <trkpt lat="43.34227" lon="-0.54226">
        <ele>127.51196289062</ele>
        <time>2016-07-06T07:56:50Z</time>
      </trkpt>
      <trkpt lat="43.34192" lon="-0.54207">
        <ele>128.47338867188</ele>
        <time>2016-07-06T07:56:45Z</time>
      </trkpt>
      <trkpt lat="43.3414" lon="-0.54166">
        <ele>130.39599609375</ele>
        <time>2016-07-06T07:56:37Z</time>
      </trkpt>
      <trkpt lat="43.34123" lon="-0.54149">
        <ele>130.87670898438</ele>
        <time>2016-07-06T07:56:34Z</time>
      </trkpt>
      <trkpt lat="43.34073" lon="-0.5408">
        <ele>131.35729980469</ele>
        <time>2016-07-06T07:56:22Z</time>
      </trkpt>
      <trkpt lat="43.3405" lon="-0.54045">
        <ele>132.79931640625</ele>
        <time>2016-07-06T07:56:16Z</time>
      </trkpt>
      <trkpt lat="43.34025" lon="-0.5401">
        <ele>132.31860351562</ele>
        <time>2016-07-06T07:56:09Z</time>
      </trkpt>
      <trkpt lat="43.33966" lon="-0.53955">
        <ele>130.39599609375</ele>
        <time>2016-07-06T07:55:54Z</time>
      </trkpt>
      <trkpt lat="43.33934" lon="-0.53928">
        <ele>130.39599609375</ele>
        <time>2016-07-06T07:55:47Z</time>
      </trkpt>
      <trkpt lat="43.33852" lon="-0.53883">
        <ele>130.87670898438</ele>
        <time>2016-07-06T07:55:33Z</time>
      </trkpt>
      <trkpt lat="43.33842" lon="-0.53873">
        <ele>130.87670898438</ele>
        <time>2016-07-06T07:55:31Z</time>
      </trkpt>
      <trkpt lat="43.33793" lon="-0.53807">
        <ele>130.87670898438</ele>
        <time>2016-07-06T07:55:19Z</time>
      </trkpt>
      <trkpt lat="43.33781" lon="-0.53785">
        <ele>130.87670898438</ele>
        <time>2016-07-06T07:55:15Z</time>
      </trkpt>
      <trkpt lat="43.33723" lon="-0.53702">
        <ele>129.91528320312</ele>
        <time>2016-07-06T07:55:01Z</time>
      </trkpt>
      <trkpt lat="43.33701" lon="-0.53669">
        <ele>130.39599609375</ele>
        <time>2016-07-06T07:54:56Z</time>
      </trkpt>
      <trkpt lat="43.33642" lon="-0.53568">
        <ele>130.87670898438</ele>
        <time>2016-07-06T07:54:40Z</time>
      </trkpt>
      <trkpt lat="43.33611" lon="-0.53538">
        <ele>130.87670898438</ele>
        <time>2016-07-06T07:54:34Z</time>
      </trkpt>
      <trkpt lat="43.3358" lon="-0.53521">
        <ele>130.87670898438</ele>
        <time>2016-07-06T07:54:29Z</time>
      </trkpt>
      <trkpt lat="43.33567" lon="-0.53518">
        <ele>130.39599609375</ele>
        <time>2016-07-06T07:54:27Z</time>
      </trkpt>
      <trkpt lat="43.3354" lon="-0.53509">
        <ele>130.87670898438</ele>
        <time>2016-07-06T07:54:23Z</time>
      </trkpt>
      <trkpt lat="43.33446" lon="-0.53475">
        <ele>131.35729980469</ele>
        <time>2016-07-06T07:54:09Z</time>
      </trkpt>
      <trkpt lat="43.33373" lon="-0.53415">
        <ele>133.27990722656</ele>
        <time>2016-07-06T07:53:57Z</time>
      </trkpt>
      <trkpt lat="43.33365" lon="-0.534">
        <ele>133.76049804688</ele>
        <time>2016-07-06T07:53:55Z</time>
      </trkpt>
      <trkpt lat="43.33359" lon="-0.53384">
        <ele>132.79931640625</ele>
        <time>2016-07-06T07:53:53Z</time>
      </trkpt>
      <trkpt lat="43.33365" lon="-0.53352">
        <ele>134.72192382812</ele>
        <time>2016-07-06T07:53:49Z</time>
      </trkpt>
      <trkpt lat="43.33376" lon="-0.53341">
        <ele>135.20251464844</ele>
        <time>2016-07-06T07:53:47Z</time>
      </trkpt>
      <trkpt lat="43.33457" lon="-0.53238">
        <ele>137.60583496094</ele>
        <time>2016-07-06T07:53:30Z</time>
      </trkpt>
      <trkpt lat="43.33471" lon="-0.53213">
        <ele>137.60583496094</ele>
        <time>2016-07-06T07:53:25Z</time>
      </trkpt>
      <trkpt lat="43.33474" lon="-0.532">
        <ele>138.08654785156</ele>
        <time>2016-07-06T07:53:21Z</time>
      </trkpt>
      <trkpt lat="43.33448" lon="-0.53189">
        <ele>138.08654785156</ele>
        <time>2016-07-06T07:53:12Z</time>
      </trkpt>
      <trkpt lat="43.33397" lon="-0.5321">
        <ele>138.56726074219</ele>
        <time>2016-07-06T07:53:03Z</time>
      </trkpt>
      <trkpt lat="43.33365" lon="-0.53209">
        <ele>140.48986816406</ele>
        <time>2016-07-06T07:52:57Z</time>
      </trkpt>
      <trkpt lat="43.33355" lon="-0.53204">
        <ele>139.52844238281</ele>
        <time>2016-07-06T07:52:55Z</time>
      </trkpt>
      <trkpt lat="43.33333" lon="-0.53176">
        <ele>140.00915527344</ele>
        <time>2016-07-06T07:52:49Z</time>
      </trkpt>
      <trkpt lat="43.33326" lon="-0.53155">
        <ele>139.52844238281</ele>
        <time>2016-07-06T07:52:46Z</time>
      </trkpt>
      <trkpt lat="43.33325" lon="-0.53148">
        <ele>139.52844238281</ele>
        <time>2016-07-06T07:52:45Z</time>
      </trkpt>
      <trkpt lat="43.33302" lon="-0.53061">
        <ele>140.97045898438</ele>
        <time>2016-07-06T07:52:31Z</time>
      </trkpt>
      <trkpt lat="43.33269" lon="-0.53002">
        <ele>139.52844238281</ele>
        <time>2016-07-06T07:52:17Z</time>
      </trkpt>
      <trkpt lat="43.33257" lon="-0.52991">
        <ele>139.0478515625</ele>
        <time>2016-07-06T07:52:14Z</time>
      </trkpt>
      <trkpt lat="43.33203" lon="-0.52942">
        <ele>139.0478515625</ele>
        <time>2016-07-06T07:52:01Z</time>
      </trkpt>
      <trkpt lat="43.33169" lon="-0.52897">
        <ele>139.0478515625</ele>
        <time>2016-07-06T07:51:51Z</time>
      </trkpt>
      <trkpt lat="43.33149" lon="-0.52861">
        <ele>139.0478515625</ele>
        <time>2016-07-06T07:51:44Z</time>
      </trkpt>
      <trkpt lat="43.33138" lon="-0.52841">
        <ele>139.0478515625</ele>
        <time>2016-07-06T07:51:40Z</time>
      </trkpt>
      <trkpt lat="43.33131" lon="-0.52833">
        <ele>139.0478515625</ele>
        <time>2016-07-06T07:51:38Z</time>
      </trkpt>
      <trkpt lat="43.33128" lon="-0.52829">
        <ele>138.56726074219</ele>
        <time>2016-07-06T07:51:37Z</time>
      </trkpt>
      <trkpt lat="43.33077" lon="-0.52757">
        <ele>138.56726074219</ele>
        <time>2016-07-06T07:51:22Z</time>
      </trkpt>
      <trkpt lat="43.3307" lon="-0.52739">
        <ele>138.08654785156</ele>
        <time>2016-07-06T07:51:19Z</time>
      </trkpt>
      <trkpt lat="43.33061" lon="-0.5271">
        <ele>138.56726074219</ele>
        <time>2016-07-06T07:51:14Z</time>
      </trkpt>
      <trkpt lat="43.3305" lon="-0.52668">
        <ele>138.08654785156</ele>
        <time>2016-07-06T07:51:07Z</time>
      </trkpt>
      <trkpt lat="43.33034" lon="-0.52627">
        <ele>139.0478515625</ele>
        <time>2016-07-06T07:51:01Z</time>
      </trkpt>
      <trkpt lat="43.33018" lon="-0.52594">
        <ele>140.00915527344</ele>
        <time>2016-07-06T07:50:56Z</time>
      </trkpt>
      <trkpt lat="43.33004" lon="-0.52558">
        <ele>140.97045898438</ele>
        <time>2016-07-06T07:50:50Z</time>
      </trkpt>
      <trkpt lat="43.3299" lon="-0.52522">
        <ele>142.41247558594</ele>
        <time>2016-07-06T07:50:43Z</time>
      </trkpt>
      <trkpt lat="43.32968" lon="-0.52453">
        <ele>143.85437011719</ele>
        <time>2016-07-06T07:50:30Z</time>
      </trkpt>
      <trkpt lat="43.32949" lon="-0.52369">
        <ele>146.2578125</ele>
        <time>2016-07-06T07:50:15Z</time>
      </trkpt>
      <trkpt lat="43.32934" lon="-0.52315">
        <ele>145.77709960938</ele>
        <time>2016-07-06T07:50:03Z</time>
      </trkpt>
      <trkpt lat="43.32902" lon="-0.52289">
        <ele>142.89306640625</ele>
        <time>2016-07-06T07:49:50Z</time>
      </trkpt>
      <trkpt lat="43.32871" lon="-0.5229">
        <ele>140.97045898438</ele>
        <time>2016-07-06T07:49:39Z</time>
      </trkpt>
      <trkpt lat="43.32827" lon="-0.52291">
        <ele>138.56726074219</ele>
        <time>2016-07-06T07:49:24Z</time>
      </trkpt>
      <trkpt lat="43.32785" lon="-0.5227">
        <ele>136.16394042969</ele>
        <time>2016-07-06T07:49:12Z</time>
      </trkpt>
      <trkpt lat="43.32745" lon="-0.52242">
        <ele>135.68310546875</ele>
        <time>2016-07-06T07:49:04Z</time>
      </trkpt>
      <trkpt lat="43.32703" lon="-0.52215">
        <ele>136.64465332031</ele>
        <time>2016-07-06T07:48:57Z</time>
      </trkpt>
      <trkpt lat="43.32677" lon="-0.52194">
        <ele>137.60583496094</ele>
        <time>2016-07-06T07:48:52Z</time>
      </trkpt>
      <trkpt lat="43.32625" lon="-0.52134">
        <ele>137.60583496094</ele>
        <time>2016-07-06T07:48:41Z</time>
      </trkpt>
      <trkpt lat="43.32577" lon="-0.52057">
        <ele>138.56726074219</ele>
        <time>2016-07-06T07:48:30Z</time>
      </trkpt>
      <trkpt lat="43.3256" lon="-0.52023">
        <ele>140.97045898438</ele>
        <time>2016-07-06T07:48:25Z</time>
      </trkpt>
      <trkpt lat="43.3254" lon="-0.51995">
        <ele>141.45104980469</ele>
        <time>2016-07-06T07:48:20Z</time>
      </trkpt>
      <trkpt lat="43.32519" lon="-0.51978">
        <ele>141.93176269531</ele>
        <time>2016-07-06T07:48:15Z</time>
      </trkpt>
      <trkpt lat="43.32491" lon="-0.51953">
        <ele>142.41247558594</ele>
        <time>2016-07-06T07:48:07Z</time>
      </trkpt>
      <trkpt lat="43.32429" lon="-0.51906">
        <ele>140.97045898438</ele>
        <time>2016-07-06T07:47:49Z</time>
      </trkpt>
      <trkpt lat="43.32387" lon="-0.51869">
        <ele>138.08654785156</ele>
        <time>2016-07-06T07:47:36Z</time>
      </trkpt>
      <trkpt lat="43.32316" lon="-0.51801">
        <ele>137.12524414062</ele>
        <time>2016-07-06T07:47:21Z</time>
      </trkpt>
      <trkpt lat="43.32273" lon="-0.5173">
        <ele>139.52844238281</ele>
        <time>2016-07-06T07:47:10Z</time>
      </trkpt>
      <trkpt lat="43.32209" lon="-0.51642">
        <ele>141.93176269531</ele>
        <time>2016-07-06T07:46:54Z</time>
      </trkpt>
      <trkpt lat="43.32163" lon="-0.51597">
        <ele>142.89306640625</ele>
        <time>2016-07-06T07:46:45Z</time>
      </trkpt>
      <trkpt lat="43.32138" lon="-0.51578">
        <ele>144.33520507812</ele>
        <time>2016-07-06T07:46:41Z</time>
      </trkpt>
      <trkpt lat="43.32122" lon="-0.51565">
        <ele>145.77709960938</ele>
        <time>2016-07-06T07:46:38Z</time>
      </trkpt>
      <trkpt lat="43.32097" lon="-0.51542">
        <ele>146.2578125</ele>
        <time>2016-07-06T07:46:32Z</time>
      </trkpt>
      <trkpt lat="43.32084" lon="-0.51531">
        <ele>146.2578125</ele>
        <time>2016-07-06T07:46:29Z</time>
      </trkpt>
      <trkpt lat="43.32067" lon="-0.51517">
        <ele>146.2578125</ele>
        <time>2016-07-06T07:46:25Z</time>
      </trkpt>
      <trkpt lat="43.32046" lon="-0.51488">
        <ele>147.21899414062</ele>
        <time>2016-07-06T07:46:17Z</time>
      </trkpt>
      <trkpt lat="43.32039" lon="-0.51474">
        <ele>147.21899414062</ele>
        <time>2016-07-06T07:45:30Z</time>
      </trkpt>
      <trkpt lat="43.3204" lon="-0.51475">
        <ele>148.66101074219</ele>
        <time>2016-07-06T07:45:15Z</time>
      </trkpt>
      <trkpt lat="43.32046" lon="-0.51468">
        <ele>149.1416015625</ele>
        <time>2016-07-06T07:45:06Z</time>
      </trkpt>
      <trkpt lat="43.3205" lon="-0.51496">
        <ele>147.21899414062</ele>
        <time>2016-07-06T07:44:57Z</time>
      </trkpt>
      <trkpt lat="43.3209" lon="-0.51538">
        <ele>146.2578125</ele>
        <time>2016-07-06T07:44:43Z</time>
      </trkpt>
      <trkpt lat="43.32123" lon="-0.51568">
        <ele>145.29638671875</ele>
        <time>2016-07-06T07:44:29Z</time>
      </trkpt>
      <trkpt lat="43.32144" lon="-0.51585">
        <ele>142.89306640625</ele>
        <time>2016-07-06T07:44:21Z</time>
      </trkpt>
      <trkpt lat="43.32173" lon="-0.51607">
        <ele>141.93176269531</ele>
        <time>2016-07-06T07:44:13Z</time>
      </trkpt>
      <trkpt lat="43.32183" lon="-0.51618">
        <ele>140.97045898438</ele>
        <time>2016-07-06T07:44:10Z</time>
      </trkpt>
      <trkpt lat="43.32187" lon="-0.51622">
        <ele>141.45104980469</ele>
        <time>2016-07-06T07:44:09Z</time>
      </trkpt>
      <trkpt lat="43.32239" lon="-0.5168">
        <ele>141.45104980469</ele>
        <time>2016-07-06T07:43:53Z</time>
      </trkpt>
      <trkpt lat="43.32275" lon="-0.51742">
        <ele>139.0478515625</ele>
        <time>2016-07-06T07:43:39Z</time>
      </trkpt>
      <trkpt lat="43.32285" lon="-0.51759">
        <ele>138.08654785156</ele>
        <time>2016-07-06T07:43:35Z</time>
      </trkpt>
      <trkpt lat="43.32322" lon="-0.51813">
        <ele>137.12524414062</ele>
        <time>2016-07-06T07:43:23Z</time>
      </trkpt>
      <trkpt lat="43.32345" lon="-0.51833">
        <ele>137.12524414062</ele>
        <time>2016-07-06T07:43:18Z</time>
      </trkpt>
      <trkpt lat="43.32391" lon="-0.51875">
        <ele>140.00915527344</ele>
        <time>2016-07-06T07:43:10Z</time>
      </trkpt>
      <trkpt lat="43.3247" lon="-0.51939">
        <ele>141.93176269531</ele>
        <time>2016-07-06T07:42:54Z</time>
      </trkpt>
      <trkpt lat="43.32485" lon="-0.51952">
        <ele>141.93176269531</ele>
        <time>2016-07-06T07:42:50Z</time>
      </trkpt>
      <trkpt lat="43.325" lon="-0.51963">
        <ele>142.41247558594</ele>
        <time>2016-07-06T07:42:46Z</time>
      </trkpt>
      <trkpt lat="43.32547" lon="-0.52003">
        <ele>140.97045898438</ele>
        <time>2016-07-06T07:42:30Z</time>
      </trkpt>
      <trkpt lat="43.32574" lon="-0.52047">
        <ele>139.52844238281</ele>
        <time>2016-07-06T07:42:18Z</time>
      </trkpt>
      <trkpt lat="43.32586" lon="-0.52071">
        <ele>138.08654785156</ele>
        <time>2016-07-06T07:42:13Z</time>
      </trkpt>
      <trkpt lat="43.3261" lon="-0.5211">
        <ele>137.12524414062</ele>
        <time>2016-07-06T07:42:05Z</time>
      </trkpt>
      <trkpt lat="43.32639" lon="-0.52154">
        <ele>137.60583496094</ele>
        <time>2016-07-06T07:41:56Z</time>
      </trkpt>
      <trkpt lat="43.32646" lon="-0.52163">
        <ele>137.60583496094</ele>
        <time>2016-07-06T07:41:54Z</time>
      </trkpt>
      <trkpt lat="43.32673" lon="-0.52194">
        <ele>137.60583496094</ele>
        <time>2016-07-06T07:41:47Z</time>
      </trkpt>
      <trkpt lat="43.32698" lon="-0.52212">
        <ele>137.60583496094</ele>
        <time>2016-07-06T07:41:41Z</time>
      </trkpt>
      <trkpt lat="43.32715" lon="-0.52222">
        <ele>136.64465332031</ele>
        <time>2016-07-06T07:41:37Z</time>
      </trkpt>
      <trkpt lat="43.32735" lon="-0.52234">
        <ele>135.20251464844</ele>
        <time>2016-07-06T07:41:33Z</time>
      </trkpt>
      <trkpt lat="43.32802" lon="-0.52277">
        <ele>138.08654785156</ele>
        <time>2016-07-06T07:41:23Z</time>
      </trkpt>
      <trkpt lat="43.32833" lon="-0.52287">
        <ele>140.48986816406</ele>
        <time>2016-07-06T07:41:19Z</time>
      </trkpt>
      <trkpt lat="43.32897" lon="-0.52288">
        <ele>142.41247558594</ele>
        <time>2016-07-06T07:41:10Z</time>
      </trkpt>
      <trkpt lat="43.32926" lon="-0.52299">
        <ele>143.85437011719</ele>
        <time>2016-07-06T07:41:05Z</time>
      </trkpt>
      <trkpt lat="43.32937" lon="-0.52315">
        <ele>145.77709960938</ele>
        <time>2016-07-06T07:41:02Z</time>
      </trkpt>
      <trkpt lat="43.32941" lon="-0.52326">
        <ele>144.81579589844</ele>
        <time>2016-07-06T07:41:00Z</time>
      </trkpt>
      <trkpt lat="43.32947" lon="-0.52354">
        <ele>145.29638671875</ele>
        <time>2016-07-06T07:40:55Z</time>
      </trkpt>
      <trkpt lat="43.32961" lon="-0.52433">
        <ele>143.85437011719</ele>
        <time>2016-07-06T07:40:40Z</time>
      </trkpt>
      <trkpt lat="43.32972" lon="-0.52477">
        <ele>142.41247558594</ele>
        <time>2016-07-06T07:40:30Z</time>
      </trkpt>
      <trkpt lat="43.33004" lon="-0.52551">
        <ele>140.48986816406</ele>
        <time>2016-07-06T07:40:14Z</time>
      </trkpt>
      <trkpt lat="43.33021" lon="-0.52597">
        <ele>138.56726074219</ele>
        <time>2016-07-06T07:40:02Z</time>
      </trkpt>
      <trkpt lat="43.33046" lon="-0.52651">
        <ele>136.64465332031</ele>
        <time>2016-07-06T07:39:52Z</time>
      </trkpt>
      <trkpt lat="43.33054" lon="-0.5268">
        <ele>137.12524414062</ele>
        <time>2016-07-06T07:39:48Z</time>
      </trkpt>
      <trkpt lat="43.33072" lon="-0.52748">
        <ele>138.08654785156</ele>
        <time>2016-07-06T07:39:38Z</time>
      </trkpt>
      <trkpt lat="43.33098" lon="-0.52796">
        <ele>138.08654785156</ele>
        <time>2016-07-06T07:39:30Z</time>
      </trkpt>
      <trkpt lat="43.33142" lon="-0.52856">
        <ele>138.08654785156</ele>
        <time>2016-07-06T07:39:18Z</time>
      </trkpt>
      <trkpt lat="43.332" lon="-0.52943">
        <ele>138.08654785156</ele>
        <time>2016-07-06T07:39:02Z</time>
      </trkpt>
      <trkpt lat="43.3324" lon="-0.52978">
        <ele>138.08654785156</ele>
        <time>2016-07-06T07:38:53Z</time>
      </trkpt>
      <trkpt lat="43.33301" lon="-0.53054">
        <ele>140.00915527344</ele>
        <time>2016-07-06T07:38:39Z</time>
      </trkpt>
      <trkpt lat="43.33309" lon="-0.53075">
        <ele>140.48986816406</ele>
        <time>2016-07-06T07:38:35Z</time>
      </trkpt>
      <trkpt lat="43.33314" lon="-0.53098">
        <ele>140.48986816406</ele>
        <time>2016-07-06T07:38:31Z</time>
      </trkpt>
      <trkpt lat="43.33329" lon="-0.53164">
        <ele>139.0478515625</ele>
        <time>2016-07-06T07:38:19Z</time>
      </trkpt>
      <trkpt lat="43.33339" lon="-0.53191">
        <ele>139.0478515625</ele>
        <time>2016-07-06T07:38:14Z</time>
      </trkpt>
      <trkpt lat="43.33353" lon="-0.53206">
        <ele>139.0478515625</ele>
        <time>2016-07-06T07:38:10Z</time>
      </trkpt>
      <trkpt lat="43.33361" lon="-0.53209">
        <ele>139.0478515625</ele>
        <time>2016-07-06T07:38:08Z</time>
      </trkpt>
      <trkpt lat="43.33376" lon="-0.53212">
        <ele>139.0478515625</ele>
        <time>2016-07-06T07:38:04Z</time>
      </trkpt>
      <trkpt lat="43.33398" lon="-0.53208">
        <ele>137.60583496094</ele>
        <time>2016-07-06T07:37:58Z</time>
      </trkpt>
      <trkpt lat="43.33431" lon="-0.53196">
        <ele>137.12524414062</ele>
        <time>2016-07-06T07:37:51Z</time>
      </trkpt>
      <trkpt lat="43.33449" lon="-0.53189">
        <ele>137.12524414062</ele>
        <time>2016-07-06T07:37:47Z</time>
      </trkpt>
      <trkpt lat="43.33459" lon="-0.53189">
        <ele>137.12524414062</ele>
        <time>2016-07-06T07:37:45Z</time>
      </trkpt>
      <trkpt lat="43.33476" lon="-0.53199">
        <ele>137.60583496094</ele>
        <time>2016-07-06T07:37:40Z</time>
      </trkpt>
      <trkpt lat="43.33453" lon="-0.53238">
        <ele>136.64465332031</ele>
        <time>2016-07-06T07:37:31Z</time>
      </trkpt>
      <trkpt lat="43.33387" lon="-0.53324">
        <ele>133.76049804688</ele>
        <time>2016-07-06T07:37:10Z</time>
      </trkpt>
      <trkpt lat="43.33359" lon="-0.53371">
        <ele>132.31860351562</ele>
        <time>2016-07-06T07:36:58Z</time>
      </trkpt>
      <trkpt lat="43.33367" lon="-0.53404">
        <ele>131.837890625</ele>
        <time>2016-07-06T07:36:51Z</time>
      </trkpt>
      <trkpt lat="43.33384" lon="-0.53431">
        <ele>131.35729980469</ele>
        <time>2016-07-06T07:36:45Z</time>
      </trkpt>
      <trkpt lat="43.33394" lon="-0.53441">
        <ele>131.35729980469</ele>
        <time>2016-07-06T07:36:42Z</time>
      </trkpt>
      <trkpt lat="43.33424" lon="-0.53466">
        <ele>129.91528320312</ele>
        <time>2016-07-06T07:36:34Z</time>
      </trkpt>
      <trkpt lat="43.33511" lon="-0.535">
        <ele>129.91528320312</ele>
        <time>2016-07-06T07:36:16Z</time>
      </trkpt>
      <trkpt lat="43.3352" lon="-0.53502">
        <ele>129.91528320312</ele>
        <time>2016-07-06T07:36:14Z</time>
      </trkpt>
      <trkpt lat="43.33592" lon="-0.53527">
        <ele>129.43469238281</ele>
        <time>2016-07-06T07:35:59Z</time>
      </trkpt>
      <trkpt lat="43.33642" lon="-0.53573">
        <ele>129.43469238281</ele>
        <time>2016-07-06T07:35:47Z</time>
      </trkpt>
      <trkpt lat="43.33648" lon="-0.53583">
        <ele>129.91528320312</ele>
        <time>2016-07-06T07:35:45Z</time>
      </trkpt>
      <trkpt lat="43.33677" lon="-0.53635">
        <ele>130.39599609375</ele>
        <time>2016-07-06T07:35:35Z</time>
      </trkpt>
      <trkpt lat="43.33719" lon="-0.53704">
        <ele>129.43469238281</ele>
        <time>2016-07-06T07:35:21Z</time>
      </trkpt>
      <trkpt lat="43.33779" lon="-0.53783">
        <ele>129.43469238281</ele>
        <time>2016-07-06T07:35:05Z</time>
      </trkpt>
      <trkpt lat="43.33806" lon="-0.53836">
        <ele>130.39599609375</ele>
        <time>2016-07-06T07:34:55Z</time>
      </trkpt>
      <trkpt lat="43.33813" lon="-0.53845">
        <ele>129.43469238281</ele>
        <time>2016-07-06T07:34:53Z</time>
      </trkpt>
      <trkpt lat="43.33846" lon="-0.53881">
        <ele>128.47338867188</ele>
        <time>2016-07-06T07:34:43Z</time>
      </trkpt>
      <trkpt lat="43.33867" lon="-0.53896">
        <ele>128.9541015625</ele>
        <time>2016-07-06T07:34:38Z</time>
      </trkpt>
      <trkpt lat="43.33882" lon="-0.53904">
        <ele>128.9541015625</ele>
        <time>2016-07-06T07:34:35Z</time>
      </trkpt>
      <trkpt lat="43.33955" lon="-0.53948">
        <ele>129.91528320312</ele>
        <time>2016-07-06T07:34:21Z</time>
      </trkpt>
      <trkpt lat="43.3396" lon="-0.53952">
        <ele>129.91528320312</ele>
        <time>2016-07-06T07:34:20Z</time>
      </trkpt>
      <trkpt lat="43.34018" lon="-0.54">
        <ele>131.35729980469</ele>
        <time>2016-07-06T07:34:08Z</time>
      </trkpt>
      <trkpt lat="43.34078" lon="-0.54087">
        <ele>131.35729980469</ele>
        <time>2016-07-06T07:33:50Z</time>
      </trkpt>
      <trkpt lat="43.34113" lon="-0.54138">
        <ele>129.91528320312</ele>
        <time>2016-07-06T07:33:38Z</time>
      </trkpt>
      <trkpt lat="43.34145" lon="-0.54171">
        <ele>129.43469238281</ele>
        <time>2016-07-06T07:33:28Z</time>
      </trkpt>
      <trkpt lat="43.34201" lon="-0.54215">
        <ele>126.55065917969</ele>
        <time>2016-07-06T07:33:15Z</time>
      </trkpt>
      <trkpt lat="43.34257" lon="-0.54257">
        <ele>126.55065917969</ele>
        <time>2016-07-06T07:33:04Z</time>
      </trkpt>
      <trkpt lat="43.34292" lon="-0.54319">
        <ele>129.43469238281</ele>
        <time>2016-07-06T07:32:53Z</time>
      </trkpt>
      <trkpt lat="43.34306" lon="-0.54352">
        <ele>128.9541015625</ele>
        <time>2016-07-06T07:32:47Z</time>
      </trkpt>
      <trkpt lat="43.34317" lon="-0.54401">
        <ele>128.9541015625</ele>
        <time>2016-07-06T07:32:39Z</time>
      </trkpt>
      <trkpt lat="43.34327" lon="-0.54423">
        <ele>127.99255371094</ele>
        <time>2016-07-06T07:32:35Z</time>
      </trkpt>
      <trkpt lat="43.34343" lon="-0.54443">
        <ele>127.99255371094</ele>
        <time>2016-07-06T07:32:31Z</time>
      </trkpt>
      <trkpt lat="43.3441" lon="-0.54502">
        <ele>128.9541015625</ele>
        <time>2016-07-06T07:32:17Z</time>
      </trkpt>
      <trkpt lat="43.34426" lon="-0.54505">
        <ele>128.9541015625</ele>
        <time>2016-07-06T07:32:14Z</time>
      </trkpt>
      <trkpt lat="43.34448" lon="-0.54508">
        <ele>128.47338867188</ele>
        <time>2016-07-06T07:32:10Z</time>
      </trkpt>
      <trkpt lat="43.3447" lon="-0.54518">
        <ele>128.9541015625</ele>
        <time>2016-07-06T07:32:06Z</time>
      </trkpt>
      <trkpt lat="43.34507" lon="-0.54541">
        <ele>130.39599609375</ele>
        <time>2016-07-06T07:31:59Z</time>
      </trkpt>
      <trkpt lat="43.3453" lon="-0.5455">
        <ele>130.39599609375</ele>
        <time>2016-07-06T07:31:54Z</time>
      </trkpt>
      <trkpt lat="43.3454" lon="-0.54549">
        <ele>130.39599609375</ele>
        <time>2016-07-06T07:31:52Z</time>
      </trkpt>
      <trkpt lat="43.3455" lon="-0.54546">
        <ele>130.39599609375</ele>
        <time>2016-07-06T07:31:50Z</time>
      </trkpt>
      <trkpt lat="43.34586" lon="-0.54567">
        <ele>129.91528320312</ele>
        <time>2016-07-06T07:31:42Z</time>
      </trkpt>
      <trkpt lat="43.34599" lon="-0.54633">
        <ele>130.87670898438</ele>
        <time>2016-07-06T07:31:34Z</time>
      </trkpt>
      <trkpt lat="43.34626" lon="-0.54666">
        <ele>133.27990722656</ele>
        <time>2016-07-06T07:31:28Z</time>
      </trkpt>
      <trkpt lat="43.34671" lon="-0.54687">
        <ele>132.79931640625</ele>
        <time>2016-07-06T07:31:16Z</time>
      </trkpt>
      <trkpt lat="43.34723" lon="-0.54728">
        <ele>132.79931640625</ele>
        <time>2016-07-06T07:31:04Z</time>
      </trkpt>
      <trkpt lat="43.34727" lon="-0.54732">
        <ele>132.79931640625</ele>
        <time>2016-07-06T07:31:03Z</time>
      </trkpt>
      <trkpt lat="43.3476" lon="-0.54768">
        <ele>132.31860351562</ele>
        <time>2016-07-06T07:30:50Z</time>
      </trkpt>
      <trkpt lat="43.34766" lon="-0.54776">
        <ele>130.87670898438</ele>
        <time>2016-07-06T07:30:47Z</time>
      </trkpt>
      <trkpt lat="43.34817" lon="-0.5484">
        <ele>128.9541015625</ele>
        <time>2016-07-06T07:30:32Z</time>
      </trkpt>
      <trkpt lat="43.34832" lon="-0.54865">
        <ele>129.91528320312</ele>
        <time>2016-07-06T07:30:28Z</time>
      </trkpt>
      <trkpt lat="43.34867" lon="-0.5489">
        <ele>130.87670898438</ele>
        <time>2016-07-06T07:30:20Z</time>
      </trkpt>
      <trkpt lat="43.34893" lon="-0.54897">
        <ele>130.87670898438</ele>
        <time>2016-07-06T07:30:15Z</time>
      </trkpt>
      <trkpt lat="43.34925" lon="-0.54915">
        <ele>130.87670898438</ele>
        <time>2016-07-06T07:30:07Z</time>
      </trkpt>
      <trkpt lat="43.34954" lon="-0.54953">
        <ele>129.43469238281</ele>
        <time>2016-07-06T07:29:56Z</time>
      </trkpt>
      <trkpt lat="43.35014" lon="-0.55046">
        <ele>127.99255371094</ele>
        <time>2016-07-06T07:29:38Z</time>
      </trkpt>
      <trkpt lat="43.35097" lon="-0.55103">
        <ele>128.9541015625</ele>
        <time>2016-07-06T07:29:20Z</time>
      </trkpt>
      <trkpt lat="43.35148" lon="-0.55127">
        <ele>128.47338867188</ele>
        <time>2016-07-06T07:29:07Z</time>
      </trkpt>
      <trkpt lat="43.35152" lon="-0.5513">
        <ele>128.47338867188</ele>
        <time>2016-07-06T07:29:06Z</time>
      </trkpt>
      <trkpt lat="43.35199" lon="-0.55198">
        <ele>127.03137207031</ele>
        <time>2016-07-06T07:28:48Z</time>
      </trkpt>
      <trkpt lat="43.35221" lon="-0.55261">
        <ele>126.06994628906</ele>
        <time>2016-07-06T07:28:35Z</time>
      </trkpt>
      <trkpt lat="43.35228" lon="-0.55341">
        <ele>124.62805175781</ele>
        <time>2016-07-06T07:28:20Z</time>
      </trkpt>
      <trkpt lat="43.35219" lon="-0.55374">
        <ele>124.14733886719</ele>
        <time>2016-07-06T07:28:13Z</time>
      </trkpt>
      <trkpt lat="43.35211" lon="-0.55377">
        <ele>123.18615722656</ele>
        <time>2016-07-06T07:28:11Z</time>
      </trkpt>
      <trkpt lat="43.35202" lon="-0.55379">
        <ele>123.66674804688</ele>
        <time>2016-07-06T07:28:09Z</time>
      </trkpt>
      <trkpt lat="43.35177" lon="-0.55374">
        <ele>123.66674804688</ele>
        <time>2016-07-06T07:28:04Z</time>
      </trkpt>
      <trkpt lat="43.35165" lon="-0.55363">
        <ele>124.14733886719</ele>
        <time>2016-07-06T07:28:01Z</time>
      </trkpt>
      <trkpt lat="43.35069" lon="-0.55272">
        <ele>124.62805175781</ele>
        <time>2016-07-06T07:27:37Z</time>
      </trkpt>
      <trkpt lat="43.35044" lon="-0.55283">
        <ele>123.66674804688</ele>
        <time>2016-07-06T07:27:30Z</time>
      </trkpt>
      <trkpt lat="43.35029" lon="-0.55324">
        <ele>122.70544433594</ele>
        <time>2016-07-06T07:27:23Z</time>
      </trkpt>
      <trkpt lat="43.35026" lon="-0.5533">
        <ele>123.66674804688</ele>
        <time>2016-07-06T07:27:22Z</time>
      </trkpt>
      <trkpt lat="43.34977" lon="-0.55449">
        <ele>122.70544433594</ele>
        <time>2016-07-06T07:27:01Z</time>
      </trkpt>
      <trkpt lat="43.3498" lon="-0.55479">
        <ele>122.22473144531</ele>
        <time>2016-07-06T07:26:56Z</time>
      </trkpt>
      <trkpt lat="43.35001" lon="-0.55556">
        <ele>122.22473144531</ele>
        <time>2016-07-06T07:26:43Z</time>
      </trkpt>
      <trkpt lat="43.35" lon="-0.55579">
        <ele>122.70544433594</ele>
        <time>2016-07-06T07:26:39Z</time>
      </trkpt>
      <trkpt lat="43.34999" lon="-0.55584">
        <ele>122.70544433594</ele>
        <time>2016-07-06T07:26:38Z</time>
      </trkpt>
      <trkpt lat="43.34966" lon="-0.55636">
        <ele>123.18615722656</ele>
        <time>2016-07-06T07:26:24Z</time>
      </trkpt>
      <trkpt lat="43.34963" lon="-0.55655">
        <ele>122.70544433594</ele>
        <time>2016-07-06T07:26:20Z</time>
      </trkpt>
      <trkpt lat="43.34974" lon="-0.55686">
        <ele>122.22473144531</ele>
        <time>2016-07-06T07:26:14Z</time>
      </trkpt>
      <trkpt lat="43.35014" lon="-0.55807">
        <ele>123.18615722656</ele>
        <time>2016-07-06T07:25:53Z</time>
      </trkpt>
      <trkpt lat="43.35079" lon="-0.55998">
        <ele>121.26354980469</ele>
        <time>2016-07-06T07:25:23Z</time>
      </trkpt>
      <trkpt lat="43.35119" lon="-0.56126">
        <ele>121.744140625</ele>
        <time>2016-07-06T07:25:03Z</time>
      </trkpt>
      <trkpt lat="43.35119" lon="-0.56197">
        <ele>122.22473144531</ele>
        <time>2016-07-06T07:24:53Z</time>
      </trkpt>
      <trkpt lat="43.35114" lon="-0.56368">
        <ele>122.22473144531</ele>
        <time>2016-07-06T07:24:29Z</time>
      </trkpt>
      <trkpt lat="43.35118" lon="-0.56394">
        <ele>121.744140625</ele>
        <time>2016-07-06T07:24:25Z</time>
      </trkpt>
      <trkpt lat="43.35132" lon="-0.5642">
        <ele>122.22473144531</ele>
        <time>2016-07-06T07:24:20Z</time>
      </trkpt>
      <trkpt lat="43.35136" lon="-0.56439">
        <ele>121.26354980469</ele>
        <time>2016-07-06T07:24:17Z</time>
      </trkpt>
      <trkpt lat="43.35154" lon="-0.56458">
        <ele>122.22473144531</ele>
        <time>2016-07-06T07:24:12Z</time>
      </trkpt>
      <trkpt lat="43.3523" lon="-0.56479">
        <ele>121.744140625</ele>
        <time>2016-07-06T07:23:56Z</time>
      </trkpt>
      <trkpt lat="43.35342" lon="-0.56479">
        <ele>121.26354980469</ele>
        <time>2016-07-06T07:23:32Z</time>
      </trkpt>
      <trkpt lat="43.3545" lon="-0.56481">
        <ele>120.78283691406</ele>
        <time>2016-07-06T07:23:09Z</time>
      </trkpt>
      <trkpt lat="43.35463" lon="-0.56498">
        <ele>120.30212402344</ele>
        <time>2016-07-06T07:23:04Z</time>
      </trkpt>
      <trkpt lat="43.35464" lon="-0.5651">
        <ele>120.30212402344</ele>
        <time>2016-07-06T07:23:02Z</time>
      </trkpt>
      <trkpt lat="43.35465" lon="-0.56522">
        <ele>120.30212402344</ele>
        <time>2016-07-06T07:23:00Z</time>
      </trkpt>
      <trkpt lat="43.35471" lon="-0.56573">
        <ele>120.30212402344</ele>
        <time>2016-07-06T07:22:52Z</time>
      </trkpt>
      <trkpt lat="43.35505" lon="-0.56666">
        <ele>119.82141113281</ele>
        <time>2016-07-06T07:22:36Z</time>
      </trkpt>
      <trkpt lat="43.35509" lon="-0.567">
        <ele>119.3408203125</ele>
        <time>2016-07-06T07:22:31Z</time>
      </trkpt>
      <trkpt lat="43.35521" lon="-0.56826">
        <ele>119.3408203125</ele>
        <time>2016-07-06T07:22:11Z</time>
      </trkpt>
      <trkpt lat="43.35527" lon="-0.56851">
        <ele>119.82141113281</ele>
        <time>2016-07-06T07:22:06Z</time>
      </trkpt>
      <trkpt lat="43.35535" lon="-0.56854">
        <ele>120.30212402344</ele>
        <time>2016-07-06T07:22:04Z</time>
      </trkpt>
      <trkpt lat="43.35563" lon="-0.56843">
        <ele>119.82141113281</ele>
        <time>2016-07-06T07:21:57Z</time>
      </trkpt>
      <trkpt lat="43.35653" lon="-0.56781">
        <ele>119.82141113281</ele>
        <time>2016-07-06T07:21:36Z</time>
      </trkpt>
      <trkpt lat="43.3569" lon="-0.56754">
        <ele>120.30212402344</ele>
        <time>2016-07-06T07:21:27Z</time>
      </trkpt>
      <trkpt lat="43.35701" lon="-0.56745">
        <ele>119.82141113281</ele>
        <time>2016-07-06T07:21:24Z</time>
      </trkpt>
      <trkpt lat="43.35716" lon="-0.56751">
        <ele>120.30212402344</ele>
        <time>2016-07-06T07:21:19Z</time>
      </trkpt>
      <trkpt lat="43.35708" lon="-0.5678">
        <ele>120.30212402344</ele>
        <time>2016-07-06T07:21:14Z</time>
      </trkpt>
      <trkpt lat="43.35691" lon="-0.56854">
        <ele>120.30212402344</ele>
        <time>2016-07-06T07:21:02Z</time>
      </trkpt>
      <trkpt lat="43.35674" lon="-0.56948">
        <ele>119.3408203125</ele>
        <time>2016-07-06T07:20:47Z</time>
      </trkpt>
      <trkpt lat="43.35663" lon="-0.57075">
        <ele>119.3408203125</ele>
        <time>2016-07-06T07:20:27Z</time>
      </trkpt>
      <trkpt lat="43.35693" lon="-0.57199">
        <ele>119.82141113281</ele>
        <time>2016-07-06T07:20:07Z</time>
      </trkpt>
      <trkpt lat="43.35734" lon="-0.57302">
        <ele>119.82141113281</ele>
        <time>2016-07-06T07:19:48Z</time>
      </trkpt>
      <trkpt lat="43.35749" lon="-0.57368">
        <ele>119.3408203125</ele>
        <time>2016-07-06T07:19:37Z</time>
      </trkpt>
      <trkpt lat="43.3578" lon="-0.57474">
        <ele>118.86010742188</ele>
        <time>2016-07-06T07:19:19Z</time>
      </trkpt>
      <trkpt lat="43.35805" lon="-0.57576">
        <ele>118.86010742188</ele>
        <time>2016-07-06T07:19:04Z</time>
      </trkpt>
      <trkpt lat="43.35808" lon="-0.57611">
        <ele>119.82141113281</ele>
        <time>2016-07-06T07:18:59Z</time>
      </trkpt>
      <trkpt lat="43.35803" lon="-0.57629">
        <ele>119.82141113281</ele>
        <time>2016-07-06T07:18:56Z</time>
      </trkpt>
      <trkpt lat="43.35757" lon="-0.57796">
        <ele>119.82141113281</ele>
        <time>2016-07-06T07:18:32Z</time>
      </trkpt>
      <trkpt lat="43.35705" lon="-0.57983">
        <ele>119.82141113281</ele>
        <time>2016-07-06T07:18:05Z</time>
      </trkpt>
      <trkpt lat="43.35656" lon="-0.58165">
        <ele>119.3408203125</ele>
        <time>2016-07-06T07:17:40Z</time>
      </trkpt>
      <trkpt lat="43.35653" lon="-0.58196">
        <ele>119.82141113281</ele>
        <time>2016-07-06T07:17:36Z</time>
      </trkpt>
      <trkpt lat="43.35658" lon="-0.58243">
        <ele>118.86010742188</ele>
        <time>2016-07-06T07:17:30Z</time>
      </trkpt>
      <trkpt lat="43.35645" lon="-0.58269">
        <ele>120.30212402344</ele>
        <time>2016-07-06T07:17:25Z</time>
      </trkpt>
      <trkpt lat="43.35543" lon="-0.5827">
        <ele>119.82141113281</ele>
        <time>2016-07-06T07:17:05Z</time>
      </trkpt>
      <trkpt lat="43.35427" lon="-0.5827">
        <ele>117.89880371094</ele>
        <time>2016-07-06T07:16:44Z</time>
      </trkpt>
      <trkpt lat="43.35273" lon="-0.58272">
        <ele>119.3408203125</ele>
        <time>2016-07-06T07:16:17Z</time>
      </trkpt>
      <trkpt lat="43.35158" lon="-0.58271">
        <ele>119.3408203125</ele>
        <time>2016-07-06T07:15:57Z</time>
      </trkpt>
      <trkpt lat="43.35056" lon="-0.58269">
        <ele>119.82141113281</ele>
        <time>2016-07-06T07:15:38Z</time>
      </trkpt>
      <trkpt lat="43.34939" lon="-0.5827">
        <ele>120.30212402344</ele>
        <time>2016-07-06T07:15:16Z</time>
      </trkpt>
      <trkpt lat="43.34829" lon="-0.58271">
        <ele>119.82141113281</ele>
        <time>2016-07-06T07:14:55Z</time>
      </trkpt>
      <trkpt lat="43.347" lon="-0.58279">
        <ele>120.78283691406</ele>
        <time>2016-07-06T07:14:31Z</time>
      </trkpt>
      <trkpt lat="43.34578" lon="-0.58282">
        <ele>121.26354980469</ele>
        <time>2016-07-06T07:14:09Z</time>
      </trkpt>
      <trkpt lat="43.34476" lon="-0.58287">
        <ele>121.26354980469</ele>
        <time>2016-07-06T07:13:50Z</time>
      </trkpt>
      <trkpt lat="43.34383" lon="-0.5829">
        <ele>121.26354980469</ele>
        <time>2016-07-06T07:13:32Z</time>
      </trkpt>
      <trkpt lat="43.34344" lon="-0.58284">
        <ele>121.26354980469</ele>
        <time>2016-07-06T07:13:19Z</time>
      </trkpt>
      <trkpt lat="43.34342" lon="-0.58269">
        <ele>120.78283691406</ele>
        <time>2016-07-06T07:13:16Z</time>
      </trkpt>
      <trkpt lat="43.34342" lon="-0.58152">
        <ele>121.26354980469</ele>
        <time>2016-07-06T07:12:59Z</time>
      </trkpt>
      <trkpt lat="43.34344" lon="-0.58131">
        <ele>121.26354980469</ele>
        <time>2016-07-06T07:12:56Z</time>
      </trkpt>
      <trkpt lat="43.34347" lon="-0.58096">
        <ele>121.744140625</ele>
        <time>2016-07-06T07:12:51Z</time>
      </trkpt>
      <trkpt lat="43.34335" lon="-0.58051">
        <ele>121.26354980469</ele>
        <time>2016-07-06T07:12:44Z</time>
      </trkpt>
      <trkpt lat="43.34269" lon="-0.57955">
        <ele>121.26354980469</ele>
        <time>2016-07-06T07:12:25Z</time>
      </trkpt>
      <trkpt lat="43.34243" lon="-0.57898">
        <ele>121.26354980469</ele>
        <time>2016-07-06T07:12:15Z</time>
      </trkpt>
      <trkpt lat="43.34239" lon="-0.5787">
        <ele>121.26354980469</ele>
        <time>2016-07-06T07:12:11Z</time>
      </trkpt>
      <trkpt lat="43.34241" lon="-0.57753">
        <ele>121.744140625</ele>
        <time>2016-07-06T07:11:55Z</time>
      </trkpt>
      <trkpt lat="43.3427" lon="-0.57618">
        <ele>123.18615722656</ele>
        <time>2016-07-06T07:11:39Z</time>
      </trkpt>
      <trkpt lat="43.34275" lon="-0.57599">
        <ele>124.62805175781</ele>
        <time>2016-07-06T07:11:37Z</time>
      </trkpt>
      <trkpt lat="43.34266" lon="-0.5756">
        <ele>126.06994628906</ele>
        <time>2016-07-06T07:11:31Z</time>
      </trkpt>
      <trkpt lat="43.34242" lon="-0.57548">
        <ele>126.06994628906</ele>
        <time>2016-07-06T07:11:26Z</time>
      </trkpt>
      <trkpt lat="43.34185" lon="-0.5755">
        <ele>126.06994628906</ele>
        <time>2016-07-06T07:11:15Z</time>
      </trkpt>
      <trkpt lat="43.34102" lon="-0.57545">
        <ele>128.47338867188</ele>
        <time>2016-07-06T07:10:59Z</time>
      </trkpt>
      <trkpt lat="43.34085" lon="-0.57546">
        <ele>127.03137207031</ele>
        <time>2016-07-06T07:10:55Z</time>
      </trkpt>
      <trkpt lat="43.34071" lon="-0.5755">
        <ele>126.06994628906</ele>
        <time>2016-07-06T07:10:52Z</time>
      </trkpt>
      <trkpt lat="43.33995" lon="-0.57536">
        <ele>125.10876464844</ele>
        <time>2016-07-06T07:10:37Z</time>
      </trkpt>
      <trkpt lat="43.3388" lon="-0.57549">
        <ele>124.62805175781</ele>
        <time>2016-07-06T07:10:16Z</time>
      </trkpt>
      <trkpt lat="43.33749" lon="-0.57515">
        <ele>126.06994628906</ele>
        <time>2016-07-06T07:09:52Z</time>
      </trkpt>
      <trkpt lat="43.33663" lon="-0.57473">
        <ele>126.06994628906</ele>
        <time>2016-07-06T07:09:35Z</time>
      </trkpt>
      <trkpt lat="43.33569" lon="-0.57389">
        <ele>128.9541015625</ele>
        <time>2016-07-06T07:09:15Z</time>
      </trkpt>
      <trkpt lat="43.33474" lon="-0.5731">
        <ele>131.35729980469</ele>
        <time>2016-07-06T07:08:56Z</time>
      </trkpt>
      <trkpt lat="43.33439" lon="-0.57269">
        <ele>132.79931640625</ele>
        <time>2016-07-06T07:08:48Z</time>
      </trkpt>
      <trkpt lat="43.33402" lon="-0.57253">
        <ele>132.79931640625</ele>
        <time>2016-07-06T07:08:39Z</time>
      </trkpt>
      <trkpt lat="43.33355" lon="-0.57261">
        <ele>131.35729980469</ele>
        <time>2016-07-06T07:08:29Z</time>
      </trkpt>
      <trkpt lat="43.3332" lon="-0.57246">
        <ele>131.35729980469</ele>
        <time>2016-07-06T07:08:22Z</time>
      </trkpt>
      <trkpt lat="43.33235" lon="-0.57226">
        <ele>130.87670898438</ele>
        <time>2016-07-06T07:08:06Z</time>
      </trkpt>
      <trkpt lat="43.33152" lon="-0.57197">
        <ele>129.91528320312</ele>
        <time>2016-07-06T07:07:50Z</time>
      </trkpt>
      <trkpt lat="43.33139" lon="-0.57182">
        <ele>131.837890625</ele>
        <time>2016-07-06T07:07:47Z</time>
      </trkpt>
      <trkpt lat="43.33121" lon="-0.57168">
        <ele>131.837890625</ele>
        <time>2016-07-06T07:07:43Z</time>
      </trkpt>
      <trkpt lat="43.331" lon="-0.57167">
        <ele>131.35729980469</ele>
        <time>2016-07-06T07:07:39Z</time>
      </trkpt>
      <trkpt lat="43.33007" lon="-0.57151">
        <ele>131.35729980469</ele>
        <time>2016-07-06T07:07:22Z</time>
      </trkpt>
      <trkpt lat="43.32908" lon="-0.57123">
        <ele>130.87670898438</ele>
        <time>2016-07-06T07:07:04Z</time>
      </trkpt>
      <trkpt lat="43.32819" lon="-0.5707">
        <ele>131.837890625</ele>
        <time>2016-07-06T07:06:47Z</time>
      </trkpt>
      <trkpt lat="43.32739" lon="-0.5705">
        <ele>133.76049804688</ele>
        <time>2016-07-06T07:06:33Z</time>
      </trkpt>
      <trkpt lat="43.32616" lon="-0.56981">
        <ele>131.35729980469</ele>
        <time>2016-07-06T07:06:09Z</time>
      </trkpt>
      <trkpt lat="43.32524" lon="-0.56963">
        <ele>131.837890625</ele>
        <time>2016-07-06T07:05:53Z</time>
      </trkpt>
      <trkpt lat="43.32481" lon="-0.56935">
        <ele>131.837890625</ele>
        <time>2016-07-06T07:05:45Z</time>
      </trkpt>
      <trkpt lat="43.32384" lon="-0.56855">
        <ele>133.76049804688</ele>
        <time>2016-07-06T07:05:26Z</time>
      </trkpt>
      <trkpt lat="43.32316" lon="-0.56785">
        <ele>135.20251464844</ele>
        <time>2016-07-06T07:05:13Z</time>
      </trkpt>
      <trkpt lat="43.3229" lon="-0.56771">
        <ele>135.68310546875</ele>
        <time>2016-07-06T07:05:08Z</time>
      </trkpt>
      <trkpt lat="43.32275" lon="-0.56773">
        <ele>136.16394042969</ele>
        <time>2016-07-06T07:05:04Z</time>
      </trkpt>
      <trkpt lat="43.32257" lon="-0.56891">
        <ele>135.20251464844</ele>
        <time>2016-07-06T07:04:45Z</time>
      </trkpt>
      <trkpt lat="43.32234" lon="-0.57104">
        <ele>134.2412109375</ele>
        <time>2016-07-06T07:04:18Z</time>
      </trkpt>
      <trkpt lat="43.32216" lon="-0.5724">
        <ele>134.72192382812</ele>
        <time>2016-07-06T07:04:02Z</time>
      </trkpt>
      <trkpt lat="43.32184" lon="-0.57316">
        <ele>134.72192382812</ele>
        <time>2016-07-06T07:03:53Z</time>
      </trkpt>
      <trkpt lat="43.3218" lon="-0.57325">
        <ele>134.72192382812</ele>
        <time>2016-07-06T07:03:52Z</time>
      </trkpt>
      <trkpt lat="43.32128" lon="-0.57443">
        <ele>138.56726074219</ele>
        <time>2016-07-06T07:03:40Z</time>
      </trkpt>
      <trkpt lat="43.32097" lon="-0.57512">
        <ele>141.45104980469</ele>
        <time>2016-07-06T07:03:33Z</time>
      </trkpt>
      <trkpt lat="43.32044" lon="-0.57632">
        <ele>144.81579589844</ele>
        <time>2016-07-06T07:03:17Z</time>
      </trkpt>
      <trkpt lat="43.32001" lon="-0.57734">
        <ele>147.69970703125</ele>
        <time>2016-07-06T07:03:02Z</time>
      </trkpt>
      <trkpt lat="43.31994" lon="-0.57747">
        <ele>148.18041992188</ele>
        <time>2016-07-06T07:02:59Z</time>
      </trkpt>
      <trkpt lat="43.31975" lon="-0.57739">
        <ele>149.1416015625</ele>
        <time>2016-07-06T07:02:27Z</time>
      </trkpt>
      <trkpt lat="43.31959" lon="-0.57732">
        <ele>150.58361816406</ele>
        <time>2016-07-06T07:02:17Z</time>
      </trkpt>
      <trkpt lat="43.31931" lon="-0.57716">
        <ele>152.98693847656</ele>
        <time>2016-07-06T07:02:11Z</time>
      </trkpt>
      <trkpt lat="43.31847" lon="-0.57677">
        <ele>153.94836425781</ele>
        <time>2016-07-06T07:01:55Z</time>
      </trkpt>
      <trkpt lat="43.31799" lon="-0.57671">
        <ele>153.94836425781</ele>
        <time>2016-07-06T07:01:45Z</time>
      </trkpt>
      <trkpt lat="43.3176" lon="-0.57708">
        <ele>154.90954589844</ele>
        <time>2016-07-06T07:01:36Z</time>
      </trkpt>
      <trkpt lat="43.31756" lon="-0.57722">
        <ele>154.90954589844</ele>
        <time>2016-07-06T07:01:34Z</time>
      </trkpt>
      <trkpt lat="43.31749" lon="-0.57802">
        <ele>155.87097167969</ele>
        <time>2016-07-06T07:01:22Z</time>
      </trkpt>
      <trkpt lat="43.31744" lon="-0.57823">
        <ele>155.87097167969</ele>
        <time>2016-07-06T07:01:18Z</time>
      </trkpt>
      <trkpt lat="43.31741" lon="-0.57828">
        <ele>155.87097167969</ele>
        <time>2016-07-06T07:01:17Z</time>
      </trkpt>
      <trkpt lat="43.31685" lon="-0.5787">
        <ele>152.50634765625</ele>
        <time>2016-07-06T07:01:00Z</time>
      </trkpt>
      <trkpt lat="43.31669" lon="-0.57893">
        <ele>152.50634765625</ele>
        <time>2016-07-06T07:00:51Z</time>
      </trkpt>
      <trkpt lat="43.31674" lon="-0.57914">
        <ele>152.98693847656</ele>
        <time>2016-07-06T07:00:17Z</time>
      </trkpt>
      <trkpt lat="43.31674" lon="-0.57914">
        <ele>153.46765136719</ele>
        <time>2016-07-06T07:00:06Z</time>
      </trkpt>
      <trkpt lat="43.31695" lon="-0.57975">
        <ele>156.3515625</ele>
        <time>2016-07-06T06:59:58Z</time>
      </trkpt>
      <trkpt lat="43.31701" lon="-0.58008">
        <ele>157.31286621094</ele>
        <time>2016-07-06T06:59:55Z</time>
      </trkpt>
      <trkpt lat="43.31703" lon="-0.58018">
        <ele>157.31286621094</ele>
        <time>2016-07-06T06:59:54Z</time>
      </trkpt>
      <trkpt lat="43.3172" lon="-0.58091">
        <ele>161.158203125</ele>
        <time>2016-07-06T06:59:47Z</time>
      </trkpt>
      <trkpt lat="43.31741" lon="-0.5814">
        <ele>162.11950683594</ele>
        <time>2016-07-06T06:59:42Z</time>
      </trkpt>
      <trkpt lat="43.31744" lon="-0.5815">
        <ele>163.08081054688</ele>
        <time>2016-07-06T06:59:41Z</time>
      </trkpt>
      <trkpt lat="43.31758" lon="-0.58204">
        <ele>164.52270507812</ele>
        <time>2016-07-06T06:59:36Z</time>
      </trkpt>
      <trkpt lat="43.3178" lon="-0.58303">
        <ele>168.36804199219</ele>
        <time>2016-07-06T06:59:26Z</time>
      </trkpt>
      <trkpt lat="43.31803" lon="-0.58359">
        <ele>171.25207519531</ele>
        <time>2016-07-06T06:59:18Z</time>
      </trkpt>
      <trkpt lat="43.3181" lon="-0.58373">
        <ele>170.77136230469</ele>
        <time>2016-07-06T06:59:15Z</time>
      </trkpt>
      <trkpt lat="43.31805" lon="-0.58395">
        <ele>169.81005859375</ele>
        <time>2016-07-06T06:59:12Z</time>
      </trkpt>
      <trkpt lat="43.3179" lon="-0.58422">
        <ele>170.29064941406</ele>
        <time>2016-07-06T06:59:09Z</time>
      </trkpt>
      <trkpt lat="43.31777" lon="-0.58443">
        <ele>169.32946777344</ele>
        <time>2016-07-06T06:59:07Z</time>
      </trkpt>
      <trkpt lat="43.3176" lon="-0.5846">
        <ele>170.29064941406</ele>
        <time>2016-07-06T06:59:05Z</time>
      </trkpt>
      <trkpt lat="43.31735" lon="-0.58486">
        <ele>174.13586425781</ele>
        <time>2016-07-06T06:59:02Z</time>
      </trkpt>
      <trkpt lat="43.31691" lon="-0.58517">
        <ele>178.94262695312</ele>
        <time>2016-07-06T06:58:57Z</time>
      </trkpt>
      <trkpt lat="43.31672" lon="-0.5852">
        <ele>182.78784179688</ele>
        <time>2016-07-06T06:58:55Z</time>
      </trkpt>
      <trkpt lat="43.31652" lon="-0.58522">
        <ele>187.11376953125</ele>
        <time>2016-07-06T06:58:53Z</time>
      </trkpt>
      <trkpt lat="43.31634" lon="-0.58525">
        <ele>190.47839355469</ele>
        <time>2016-07-06T06:58:51Z</time>
      </trkpt>
      <trkpt lat="43.31597" lon="-0.58533">
        <ele>196.24633789062</ele>
        <time>2016-07-06T06:58:46Z</time>
      </trkpt>
      <trkpt lat="43.31582" lon="-0.58546">
        <ele>198.1689453125</ele>
        <time>2016-07-06T06:58:41Z</time>
      </trkpt>
      <trkpt lat="43.31589" lon="-0.58611">
        <ele>200.09167480469</ele>
        <time>2016-07-06T06:58:30Z</time>
      </trkpt>
      <trkpt lat="43.31588" lon="-0.58617">
        <ele>201.05285644531</ele>
        <time>2016-07-06T06:58:29Z</time>
      </trkpt>
      <trkpt lat="43.31584" lon="-0.58634">
        <ele>202.97546386719</ele>
        <time>2016-07-06T06:58:26Z</time>
      </trkpt>
      <trkpt lat="43.31576" lon="-0.58645">
        <ele>202.97546386719</ele>
        <time>2016-07-06T06:58:20Z</time>
      </trkpt>
      <trkpt lat="43.31576" lon="-0.58646">
        <ele>202.97546386719</ele>
        <time>2016-07-06T06:58:17Z</time>
      </trkpt>
      <trkpt lat="43.31576" lon="-0.58645">
        <ele>201.53356933594</ele>
        <time>2016-07-06T06:58:06Z</time>
      </trkpt>
      <trkpt lat="43.31574" lon="-0.58648">
        <ele>199.61083984375</ele>
        <time>2016-07-06T06:57:52Z</time>
      </trkpt>
      <trkpt lat="43.31575" lon="-0.58644">
        <ele>196.72692871094</ele>
        <time>2016-07-06T06:57:39Z</time>
      </trkpt>
      <trkpt lat="43.31577" lon="-0.5864">
        <ele>193.3623046875</ele>
        <time>2016-07-06T06:57:27Z</time>
      </trkpt>
      <trkpt lat="43.31574" lon="-0.58643">
        <ele>190.47839355469</ele>
        <time>2016-07-06T06:57:19Z</time>
      </trkpt>
      <trkpt lat="43.31575" lon="-0.58645">
        <ele>187.59436035156</ele>
        <time>2016-07-06T06:57:12Z</time>
      </trkpt>
      <trkpt lat="43.31576" lon="-0.58648">
        <ele>184.22985839844</ele>
        <time>2016-07-06T06:57:07Z</time>
      </trkpt>
      <trkpt lat="43.31576" lon="-0.58648">
        <ele>183.26843261719</ele>
        <time>2016-07-06T06:57:05Z</time>
      </trkpt>
      <trkpt lat="43.31576" lon="-0.58649">
        <ele>179.90380859375</ele>
        <time>2016-07-06T06:57:01Z</time>
      </trkpt>
      <trkpt lat="43.31576" lon="-0.58649">
        <ele>176.53930664062</ele>
        <time>2016-07-06T06:56:58Z</time>
      </trkpt>
      <trkpt lat="43.31576" lon="-0.58649">
        <ele>175.09729003906</ele>
        <time>2016-07-06T06:56:56Z</time>
      </trkpt>
      <trkpt lat="43.31576" lon="-0.58649">
        <ele>173.6552734375</ele>
        <time>2016-07-06T06:56:54Z</time>
      </trkpt>
      <trkpt lat="43.31575" lon="-0.58649">
        <ele>170.77136230469</ele>
        <time>2016-07-06T06:56:51Z</time>
      </trkpt>
      <trkpt lat="43.31575" lon="-0.58649">
        <ele>166.4453125</ele>
        <time>2016-07-06T06:56:47Z</time>
      </trkpt>
      <trkpt lat="43.31575" lon="-0.58649">
        <ele>165.48413085938</ele>
        <time>2016-07-06T06:56:46Z</time>
      </trkpt>
    </trkseg>
  </trk>
</gpx>